<?xml version="1.0" encoding="UTF-8" standalone="no" ?>
<gpx xmlns="http://www.topografix.com/GPX/1/1" xmlns:xsi="http://www.w3.org/2001/XMLSchema-instance" xsi:schemaLocation="http://www.topografix.com/GPX/1/1 http://www.topografix.com/GPX/1/1/gpx.xsd" version="1.1" creator="VisuGPX - https://www.visugpx.com">
  <metadata>
    <name>21.05.2021 -verdon jour 5 Blieux St André des Alpes</name>
    <desc><![CDATA[un sentier en balcon de rêve pour commencer, une terrasse à SENEZ pour le déconfinement partiel, une belle descente sur St André. Ce raid a été une réussite, belle météo. On peut pas être tout les ans malchanceux. ]]></desc>
  </metadata>
  <trk>
    <name><![CDATA[13211247-verdon jour 5 Blieux St André des Alpes]]></name>
    <extensions>
      <line xmlns="http://www.topografix.com/GPX/gpx_style/0/2">
        <color>0000FF</color>
        <width>4</width>
      </line>
    </extensions>
    <trkseg>
      <trkpt lat="43.87231" lon="6.36949">
        <ele>969</ele>
        <time>2022-06-09T16:55:03Z</time>
      </trkpt>
      <trkpt lat="43.87234" lon="6.36955">
        <ele>969</ele>
        <time>2022-06-09T16:55:04Z</time>
      </trkpt>
      <trkpt lat="43.87233" lon="6.36953">
        <ele>969</ele>
        <time>2022-06-09T16:55:05Z</time>
      </trkpt>
      <trkpt lat="43.87231" lon="6.3696">
        <ele>967</ele>
        <time>2022-06-09T16:55:06Z</time>
      </trkpt>
      <trkpt lat="43.87227" lon="6.36964">
        <ele>966</ele>
        <time>2022-06-09T16:55:07Z</time>
      </trkpt>
      <trkpt lat="43.87204" lon="6.36968">
        <ele>961</ele>
        <time>2022-06-09T16:55:12Z</time>
      </trkpt>
      <trkpt lat="43.87195" lon="6.36966">
        <ele>960</ele>
        <time>2022-06-09T16:55:15Z</time>
      </trkpt>
      <trkpt lat="43.87187" lon="6.36961">
        <ele>959</ele>
        <time>2022-06-09T16:55:17Z</time>
      </trkpt>
      <trkpt lat="43.87185" lon="6.36962">
        <ele>959</ele>
        <time>2022-06-09T16:55:17Z</time>
      </trkpt>
      <trkpt lat="43.87184" lon="6.36969">
        <ele>958</ele>
        <time>2022-06-09T16:55:18Z</time>
      </trkpt>
      <trkpt lat="43.87188" lon="6.36987">
        <ele>956</ele>
        <time>2022-06-09T16:55:22Z</time>
      </trkpt>
      <trkpt lat="43.87206" lon="6.36993">
        <ele>958</ele>
        <time>2022-06-09T16:55:26Z</time>
      </trkpt>
      <trkpt lat="43.87239" lon="6.3699">
        <ele>963</ele>
        <time>2022-06-09T16:55:34Z</time>
      </trkpt>
      <trkpt lat="43.87243" lon="6.36987">
        <ele>964</ele>
        <time>2022-06-09T16:55:35Z</time>
      </trkpt>
      <trkpt lat="43.87254" lon="6.36986">
        <ele>965</ele>
        <time>2022-06-09T16:55:37Z</time>
      </trkpt>
      <trkpt lat="43.87257" lon="6.36978">
        <ele>966</ele>
        <time>2022-06-09T16:55:39Z</time>
      </trkpt>
      <trkpt lat="43.8725" lon="6.36984">
        <ele>965</ele>
        <time>2022-06-09T16:55:41Z</time>
      </trkpt>
      <trkpt lat="43.87259" lon="6.36984">
        <ele>965</ele>
        <time>2022-06-09T16:55:43Z</time>
      </trkpt>
      <trkpt lat="43.87292" lon="6.36954">
        <ele>966</ele>
        <time>2022-06-09T16:55:52Z</time>
      </trkpt>
      <trkpt lat="43.87295" lon="6.36956">
        <ele>965</ele>
        <time>2022-06-09T16:55:53Z</time>
      </trkpt>
      <trkpt lat="43.87278" lon="6.37004">
        <ele>961</ele>
        <time>2022-06-09T16:56:02Z</time>
      </trkpt>
      <trkpt lat="43.87273" lon="6.37027">
        <ele>959</ele>
        <time>2022-06-09T16:56:06Z</time>
      </trkpt>
      <trkpt lat="43.87272" lon="6.37049">
        <ele>958</ele>
        <time>2022-06-09T16:56:09Z</time>
      </trkpt>
      <trkpt lat="43.87265" lon="6.37054">
        <ele>957</ele>
        <time>2022-06-09T16:56:11Z</time>
      </trkpt>
      <trkpt lat="43.8726" lon="6.37062">
        <ele>955</ele>
        <time>2022-06-09T16:56:13Z</time>
      </trkpt>
      <trkpt lat="43.87247" lon="6.37066">
        <ele>953</ele>
        <time>2022-06-09T16:56:16Z</time>
      </trkpt>
      <trkpt lat="43.8724" lon="6.37072">
        <ele>951</ele>
        <time>2022-06-09T16:56:18Z</time>
      </trkpt>
      <trkpt lat="43.8722" lon="6.37105">
        <ele>948</ele>
        <time>2022-06-09T16:56:25Z</time>
      </trkpt>
      <trkpt lat="43.87205" lon="6.37123">
        <ele>947</ele>
        <time>2022-06-09T16:56:30Z</time>
      </trkpt>
      <trkpt lat="43.87189" lon="6.37137">
        <ele>945</ele>
        <time>2022-06-09T16:56:34Z</time>
      </trkpt>
      <trkpt lat="43.87176" lon="6.37142">
        <ele>943</ele>
        <time>2022-06-09T16:56:38Z</time>
      </trkpt>
      <trkpt lat="43.87174" lon="6.37156">
        <ele>944</ele>
        <time>2022-06-09T16:56:40Z</time>
      </trkpt>
      <trkpt lat="43.87168" lon="6.37171">
        <ele>945</ele>
        <time>2022-06-09T16:56:43Z</time>
      </trkpt>
      <trkpt lat="43.87169" lon="6.37212">
        <ele>954</ele>
        <time>2022-06-09T16:56:50Z</time>
      </trkpt>
      <trkpt lat="43.87161" lon="6.37238">
        <ele>957</ele>
        <time>2022-06-09T16:56:55Z</time>
      </trkpt>
      <trkpt lat="43.87157" lon="6.37272">
        <ele>960</ele>
        <time>2022-06-09T16:57:00Z</time>
      </trkpt>
      <trkpt lat="43.87159" lon="6.37287">
        <ele>961</ele>
        <time>2022-06-09T16:57:03Z</time>
      </trkpt>
      <trkpt lat="43.87176" lon="6.37296">
        <ele>964</ele>
        <time>2022-06-09T16:57:07Z</time>
      </trkpt>
      <trkpt lat="43.87188" lon="6.37308">
        <ele>966</ele>
        <time>2022-06-09T16:57:11Z</time>
      </trkpt>
      <trkpt lat="43.872" lon="6.3733">
        <ele>968</ele>
        <time>2022-06-09T16:57:15Z</time>
      </trkpt>
      <trkpt lat="43.87198" lon="6.37329">
        <ele>968</ele>
        <time>2022-06-09T16:57:16Z</time>
      </trkpt>
      <trkpt lat="43.87203" lon="6.3733">
        <ele>969</ele>
        <time>2022-06-09T16:57:17Z</time>
      </trkpt>
      <trkpt lat="43.87218" lon="6.3735">
        <ele>971</ele>
        <time>2022-06-09T16:57:22Z</time>
      </trkpt>
      <trkpt lat="43.87232" lon="6.37362">
        <ele>974</ele>
        <time>2022-06-09T16:57:26Z</time>
      </trkpt>
      <trkpt lat="43.87262" lon="6.37382">
        <ele>980</ele>
        <time>2022-06-09T16:57:33Z</time>
      </trkpt>
      <trkpt lat="43.87295" lon="6.37418">
        <ele>988</ele>
        <time>2022-06-09T16:57:43Z</time>
      </trkpt>
      <trkpt lat="43.87318" lon="6.37432">
        <ele>994</ele>
        <time>2022-06-09T16:57:49Z</time>
      </trkpt>
      <trkpt lat="43.87321" lon="6.37447">
        <ele>996</ele>
        <time>2022-06-09T16:57:52Z</time>
      </trkpt>
      <trkpt lat="43.87309" lon="6.37486">
        <ele>996</ele>
        <time>2022-06-09T16:57:59Z</time>
      </trkpt>
      <trkpt lat="43.87297" lon="6.37505">
        <ele>995</ele>
        <time>2022-06-09T16:58:03Z</time>
      </trkpt>
      <trkpt lat="43.87294" lon="6.37535">
        <ele>998</ele>
        <time>2022-06-09T16:58:08Z</time>
      </trkpt>
      <trkpt lat="43.87295" lon="6.37562">
        <ele>1001</ele>
        <time>2022-06-09T16:58:13Z</time>
      </trkpt>
      <trkpt lat="43.87291" lon="6.37631">
        <ele>1006</ele>
        <time>2022-06-09T16:58:24Z</time>
      </trkpt>
      <trkpt lat="43.87288" lon="6.37648">
        <ele>1006</ele>
        <time>2022-06-09T16:58:27Z</time>
      </trkpt>
      <trkpt lat="43.87294" lon="6.37693">
        <ele>1010</ele>
        <time>2022-06-09T16:58:35Z</time>
      </trkpt>
      <trkpt lat="43.87293" lon="6.3775">
        <ele>1011</ele>
        <time>2022-06-09T16:58:45Z</time>
      </trkpt>
      <trkpt lat="43.87288" lon="6.37765">
        <ele>1012</ele>
        <time>2022-06-09T16:58:47Z</time>
      </trkpt>
      <trkpt lat="43.87289" lon="6.37794">
        <ele>1016</ele>
        <time>2022-06-09T16:58:52Z</time>
      </trkpt>
      <trkpt lat="43.87273" lon="6.37815">
        <ele>1013</ele>
        <time>2022-06-09T16:58:57Z</time>
      </trkpt>
      <trkpt lat="43.87272" lon="6.37839">
        <ele>1015</ele>
        <time>2022-06-09T16:59:02Z</time>
      </trkpt>
      <trkpt lat="43.87274" lon="6.37846">
        <ele>1017</ele>
        <time>2022-06-09T16:59:03Z</time>
      </trkpt>
      <trkpt lat="43.87263" lon="6.37891">
        <ele>1015</ele>
        <time>2022-06-09T16:59:11Z</time>
      </trkpt>
      <trkpt lat="43.87271" lon="6.37926">
        <ele>1019</ele>
        <time>2022-06-09T16:59:17Z</time>
      </trkpt>
      <trkpt lat="43.87275" lon="6.37968">
        <ele>1019</ele>
        <time>2022-06-09T16:59:24Z</time>
      </trkpt>
      <trkpt lat="43.87279" lon="6.37986">
        <ele>1020</ele>
        <time>2022-06-09T16:59:27Z</time>
      </trkpt>
      <trkpt lat="43.8728" lon="6.38065">
        <ele>1013</ele>
        <time>2022-06-09T16:59:41Z</time>
      </trkpt>
      <trkpt lat="43.87283" lon="6.38097">
        <ele>1011</ele>
        <time>2022-06-09T16:59:46Z</time>
      </trkpt>
      <trkpt lat="43.87291" lon="6.38117">
        <ele>1011</ele>
        <time>2022-06-09T16:59:50Z</time>
      </trkpt>
      <trkpt lat="43.87309" lon="6.38144">
        <ele>1015</ele>
        <time>2022-06-09T16:59:56Z</time>
      </trkpt>
      <trkpt lat="43.87317" lon="6.38216">
        <ele>1014</ele>
        <time>2022-06-09T17:00:08Z</time>
      </trkpt>
      <trkpt lat="43.87313" lon="6.38279">
        <ele>1012</ele>
        <time>2022-06-09T17:00:19Z</time>
      </trkpt>
      <trkpt lat="43.87306" lon="6.3834">
        <ele>1012</ele>
        <time>2022-06-09T17:00:29Z</time>
      </trkpt>
      <trkpt lat="43.87301" lon="6.38362">
        <ele>1010</ele>
        <time>2022-06-09T17:00:33Z</time>
      </trkpt>
      <trkpt lat="43.87301" lon="6.38384">
        <ele>1010</ele>
        <time>2022-06-09T17:00:37Z</time>
      </trkpt>
      <trkpt lat="43.87307" lon="6.38391">
        <ele>1012</ele>
        <time>2022-06-09T17:00:39Z</time>
      </trkpt>
      <trkpt lat="43.87308" lon="6.38401">
        <ele>1013</ele>
        <time>2022-06-09T17:00:40Z</time>
      </trkpt>
      <trkpt lat="43.87296" lon="6.38437">
        <ele>1008</ele>
        <time>2022-06-09T17:00:47Z</time>
      </trkpt>
      <trkpt lat="43.87271" lon="6.38467">
        <ele>1000</ele>
        <time>2022-06-09T17:00:55Z</time>
      </trkpt>
      <trkpt lat="43.8727" lon="6.38472">
        <ele>1000</ele>
        <time>2022-06-09T17:00:56Z</time>
      </trkpt>
      <trkpt lat="43.87272" lon="6.38479">
        <ele>1000</ele>
        <time>2022-06-09T17:00:57Z</time>
      </trkpt>
      <trkpt lat="43.87271" lon="6.38509">
        <ele>1001</ele>
        <time>2022-06-09T17:01:02Z</time>
      </trkpt>
      <trkpt lat="43.87277" lon="6.3855">
        <ele>1004</ele>
        <time>2022-06-09T17:01:09Z</time>
      </trkpt>
      <trkpt lat="43.87275" lon="6.38572">
        <ele>1005</ele>
        <time>2022-06-09T17:01:13Z</time>
      </trkpt>
      <trkpt lat="43.87279" lon="6.38587">
        <ele>1006</ele>
        <time>2022-06-09T17:01:16Z</time>
      </trkpt>
      <trkpt lat="43.8728" lon="6.38604">
        <ele>1006</ele>
        <time>2022-06-09T17:01:18Z</time>
      </trkpt>
      <trkpt lat="43.87301" lon="6.38656">
        <ele>1012</ele>
        <time>2022-06-09T17:01:28Z</time>
      </trkpt>
      <trkpt lat="43.87309" lon="6.38699">
        <ele>1011</ele>
        <time>2022-06-09T17:01:36Z</time>
      </trkpt>
      <trkpt lat="43.87317" lon="6.38719">
        <ele>1012</ele>
        <time>2022-06-09T17:01:40Z</time>
      </trkpt>
      <trkpt lat="43.87333" lon="6.38753">
        <ele>1013</ele>
        <time>2022-06-09T17:01:47Z</time>
      </trkpt>
      <trkpt lat="43.87366" lon="6.38807">
        <ele>1019</ele>
        <time>2022-06-09T17:01:59Z</time>
      </trkpt>
      <trkpt lat="43.8738" lon="6.38825">
        <ele>1021</ele>
        <time>2022-06-09T17:02:03Z</time>
      </trkpt>
      <trkpt lat="43.87388" lon="6.38829">
        <ele>1024</ele>
        <time>2022-06-09T17:02:05Z</time>
      </trkpt>
      <trkpt lat="43.87394" lon="6.3884">
        <ele>1025</ele>
        <time>2022-06-09T17:02:07Z</time>
      </trkpt>
      <trkpt lat="43.87402" lon="6.38848">
        <ele>1027</ele>
        <time>2022-06-09T17:02:10Z</time>
      </trkpt>
      <trkpt lat="43.87402" lon="6.38872">
        <ele>1025</ele>
        <time>2022-06-09T17:02:14Z</time>
      </trkpt>
      <trkpt lat="43.87423" lon="6.38903">
        <ele>1031</ele>
        <time>2022-06-09T17:02:21Z</time>
      </trkpt>
      <trkpt lat="43.87434" lon="6.3893">
        <ele>1035</ele>
        <time>2022-06-09T17:02:26Z</time>
      </trkpt>
      <trkpt lat="43.87438" lon="6.38971">
        <ele>1037</ele>
        <time>2022-06-09T17:02:33Z</time>
      </trkpt>
      <trkpt lat="43.8743" lon="6.39038">
        <ele>1030</ele>
        <time>2022-06-09T17:02:44Z</time>
      </trkpt>
      <trkpt lat="43.87447" lon="6.3907">
        <ele>1036</ele>
        <time>2022-06-09T17:02:51Z</time>
      </trkpt>
      <trkpt lat="43.87457" lon="6.39112">
        <ele>1033</ele>
        <time>2022-06-09T17:02:59Z</time>
      </trkpt>
      <trkpt lat="43.87475" lon="6.39134">
        <ele>1034</ele>
        <time>2022-06-09T17:03:04Z</time>
      </trkpt>
      <trkpt lat="43.87511" lon="6.39163">
        <ele>1040</ele>
        <time>2022-06-09T17:03:14Z</time>
      </trkpt>
      <trkpt lat="43.87522" lon="6.39154">
        <ele>1048</ele>
        <time>2022-06-09T17:03:17Z</time>
      </trkpt>
      <trkpt lat="43.87538" lon="6.39152">
        <ele>1056</ele>
        <time>2022-06-09T17:03:21Z</time>
      </trkpt>
      <trkpt lat="43.8754" lon="6.39157">
        <ele>1055</ele>
        <time>2022-06-09T17:03:22Z</time>
      </trkpt>
      <trkpt lat="43.87538" lon="6.39168">
        <ele>1051</ele>
        <time>2022-06-09T17:03:23Z</time>
      </trkpt>
      <trkpt lat="43.87546" lon="6.39204">
        <ele>1046</ele>
        <time>2022-06-09T17:03:30Z</time>
      </trkpt>
      <trkpt lat="43.87565" lon="6.39242">
        <ele>1047</ele>
        <time>2022-06-09T17:03:38Z</time>
      </trkpt>
      <trkpt lat="43.87577" lon="6.3926">
        <ele>1049</ele>
        <time>2022-06-09T17:03:42Z</time>
      </trkpt>
      <trkpt lat="43.87578" lon="6.39272">
        <ele>1047</ele>
        <time>2022-06-09T17:03:44Z</time>
      </trkpt>
      <trkpt lat="43.87592" lon="6.393">
        <ele>1049</ele>
        <time>2022-06-09T17:03:50Z</time>
      </trkpt>
      <trkpt lat="43.87597" lon="6.39318">
        <ele>1048</ele>
        <time>2022-06-09T17:03:53Z</time>
      </trkpt>
      <trkpt lat="43.87614" lon="6.39356">
        <ele>1050</ele>
        <time>2022-06-09T17:04:00Z</time>
      </trkpt>
      <trkpt lat="43.87619" lon="6.39361">
        <ele>1051</ele>
        <time>2022-06-09T17:04:02Z</time>
      </trkpt>
      <trkpt lat="43.87631" lon="6.39363">
        <ele>1058</ele>
        <time>2022-06-09T17:04:05Z</time>
      </trkpt>
      <trkpt lat="43.87641" lon="6.39369">
        <ele>1062</ele>
        <time>2022-06-09T17:04:07Z</time>
      </trkpt>
      <trkpt lat="43.87658" lon="6.39403">
        <ele>1063</ele>
        <time>2022-06-09T17:04:14Z</time>
      </trkpt>
      <trkpt lat="43.87667" lon="6.39413">
        <ele>1065</ele>
        <time>2022-06-09T17:04:17Z</time>
      </trkpt>
      <trkpt lat="43.87675" lon="6.39472">
        <ele>1063</ele>
        <time>2022-06-09T17:04:27Z</time>
      </trkpt>
      <trkpt lat="43.87674" lon="6.39487">
        <ele>1062</ele>
        <time>2022-06-09T17:04:29Z</time>
      </trkpt>
      <trkpt lat="43.87678" lon="6.39499">
        <ele>1062</ele>
        <time>2022-06-09T17:04:32Z</time>
      </trkpt>
      <trkpt lat="43.8769" lon="6.39512">
        <ele>1065</ele>
        <time>2022-06-09T17:04:35Z</time>
      </trkpt>
      <trkpt lat="43.87703" lon="6.3952">
        <ele>1068</ele>
        <time>2022-06-09T17:04:38Z</time>
      </trkpt>
      <trkpt lat="43.87728" lon="6.39546">
        <ele>1071</ele>
        <time>2022-06-09T17:04:46Z</time>
      </trkpt>
      <trkpt lat="43.8774" lon="6.39553">
        <ele>1074</ele>
        <time>2022-06-09T17:04:49Z</time>
      </trkpt>
      <trkpt lat="43.8776" lon="6.39557">
        <ele>1080</ele>
        <time>2022-06-09T17:04:54Z</time>
      </trkpt>
      <trkpt lat="43.87765" lon="6.39555">
        <ele>1083</ele>
        <time>2022-06-09T17:04:55Z</time>
      </trkpt>
      <trkpt lat="43.87781" lon="6.39564">
        <ele>1086</ele>
        <time>2022-06-09T17:04:59Z</time>
      </trkpt>
      <trkpt lat="43.87801" lon="6.39579">
        <ele>1089</ele>
        <time>2022-06-09T17:05:04Z</time>
      </trkpt>
      <trkpt lat="43.87821" lon="6.39589">
        <ele>1093</ele>
        <time>2022-06-09T17:05:09Z</time>
      </trkpt>
      <trkpt lat="43.87827" lon="6.39599">
        <ele>1092</ele>
        <time>2022-06-09T17:05:11Z</time>
      </trkpt>
      <trkpt lat="43.87858" lon="6.39622">
        <ele>1093</ele>
        <time>2022-06-09T17:05:19Z</time>
      </trkpt>
      <trkpt lat="43.87872" lon="6.39626">
        <ele>1096</ele>
        <time>2022-06-09T17:05:23Z</time>
      </trkpt>
      <trkpt lat="43.87904" lon="6.39641">
        <ele>1100</ele>
        <time>2022-06-09T17:05:31Z</time>
      </trkpt>
      <trkpt lat="43.87908" lon="6.3964">
        <ele>1102</ele>
        <time>2022-06-09T17:05:32Z</time>
      </trkpt>
      <trkpt lat="43.87921" lon="6.39644">
        <ele>1104</ele>
        <time>2022-06-09T17:05:35Z</time>
      </trkpt>
      <trkpt lat="43.87947" lon="6.39657">
        <ele>1107</ele>
        <time>2022-06-09T17:05:41Z</time>
      </trkpt>
      <trkpt lat="43.87959" lon="6.39657">
        <ele>1110</ele>
        <time>2022-06-09T17:05:44Z</time>
      </trkpt>
      <trkpt lat="43.88" lon="6.3968">
        <ele>1115</ele>
        <time>2022-06-09T17:05:54Z</time>
      </trkpt>
      <trkpt lat="43.8801" lon="6.39679">
        <ele>1119</ele>
        <time>2022-06-09T17:05:57Z</time>
      </trkpt>
      <trkpt lat="43.88029" lon="6.39692">
        <ele>1121</ele>
        <time>2022-06-09T17:06:02Z</time>
      </trkpt>
      <trkpt lat="43.88049" lon="6.39698">
        <ele>1126</ele>
        <time>2022-06-09T17:06:06Z</time>
      </trkpt>
      <trkpt lat="43.88072" lon="6.39701">
        <ele>1133</ele>
        <time>2022-06-09T17:06:12Z</time>
      </trkpt>
      <trkpt lat="43.88114" lon="6.39734">
        <ele>1137</ele>
        <time>2022-06-09T17:06:23Z</time>
      </trkpt>
      <trkpt lat="43.88132" lon="6.39755">
        <ele>1137</ele>
        <time>2022-06-09T17:06:29Z</time>
      </trkpt>
      <trkpt lat="43.88155" lon="6.39775">
        <ele>1138</ele>
        <time>2022-06-09T17:06:35Z</time>
      </trkpt>
      <trkpt lat="43.88163" lon="6.3979">
        <ele>1136</ele>
        <time>2022-06-09T17:06:38Z</time>
      </trkpt>
      <trkpt lat="43.88174" lon="6.39803">
        <ele>1135</ele>
        <time>2022-06-09T17:06:41Z</time>
      </trkpt>
      <trkpt lat="43.88213" lon="6.39822">
        <ele>1140</ele>
        <time>2022-06-09T17:06:51Z</time>
      </trkpt>
      <trkpt lat="43.88242" lon="6.39833">
        <ele>1144</ele>
        <time>2022-06-09T17:06:58Z</time>
      </trkpt>
      <trkpt lat="43.88263" lon="6.39835">
        <ele>1145</ele>
        <time>2022-06-09T17:07:03Z</time>
      </trkpt>
      <trkpt lat="43.88272" lon="6.39832">
        <ele>1146</ele>
        <time>2022-06-09T17:07:05Z</time>
      </trkpt>
      <trkpt lat="43.88301" lon="6.39807">
        <ele>1155</ele>
        <time>2022-06-09T17:07:13Z</time>
      </trkpt>
      <trkpt lat="43.8831" lon="6.39794">
        <ele>1159</ele>
        <time>2022-06-09T17:07:16Z</time>
      </trkpt>
      <trkpt lat="43.88326" lon="6.39782">
        <ele>1163</ele>
        <time>2022-06-09T17:07:20Z</time>
      </trkpt>
      <trkpt lat="43.88321" lon="6.39782">
        <ele>1163</ele>
        <time>2022-06-09T17:07:22Z</time>
      </trkpt>
      <trkpt lat="43.88324" lon="6.39782">
        <ele>1163</ele>
        <time>2022-06-09T17:07:22Z</time>
      </trkpt>
      <trkpt lat="43.88355" lon="6.39746">
        <ele>1174</ele>
        <time>2022-06-09T17:07:32Z</time>
      </trkpt>
      <trkpt lat="43.88371" lon="6.39733">
        <ele>1177</ele>
        <time>2022-06-09T17:07:36Z</time>
      </trkpt>
      <trkpt lat="43.8839" lon="6.39733">
        <ele>1175</ele>
        <time>2022-06-09T17:07:40Z</time>
      </trkpt>
      <trkpt lat="43.88414" lon="6.39713">
        <ele>1181</ele>
        <time>2022-06-09T17:07:47Z</time>
      </trkpt>
      <trkpt lat="43.88439" lon="6.39702">
        <ele>1192</ele>
        <time>2022-06-09T17:07:53Z</time>
      </trkpt>
      <trkpt lat="43.88446" lon="6.39701">
        <ele>1194</ele>
        <time>2022-06-09T17:07:55Z</time>
      </trkpt>
      <trkpt lat="43.88459" lon="6.39704">
        <ele>1196</ele>
        <time>2022-06-09T17:07:58Z</time>
      </trkpt>
      <trkpt lat="43.88463" lon="6.39733">
        <ele>1186</ele>
        <time>2022-06-09T17:08:03Z</time>
      </trkpt>
      <trkpt lat="43.88479" lon="6.39767">
        <ele>1182</ele>
        <time>2022-06-09T17:08:10Z</time>
      </trkpt>
      <trkpt lat="43.88481" lon="6.39776">
        <ele>1181</ele>
        <time>2022-06-09T17:08:11Z</time>
      </trkpt>
      <trkpt lat="43.8848" lon="6.39791">
        <ele>1179</ele>
        <time>2022-06-09T17:08:14Z</time>
      </trkpt>
      <trkpt lat="43.8849" lon="6.39836">
        <ele>1179</ele>
        <time>2022-06-09T17:08:22Z</time>
      </trkpt>
      <trkpt lat="43.88509" lon="6.39882">
        <ele>1184</ele>
        <time>2022-06-09T17:08:31Z</time>
      </trkpt>
      <trkpt lat="43.88513" lon="6.39897">
        <ele>1185</ele>
        <time>2022-06-09T17:08:33Z</time>
      </trkpt>
      <trkpt lat="43.88532" lon="6.39921">
        <ele>1190</ele>
        <time>2022-06-09T17:08:39Z</time>
      </trkpt>
      <trkpt lat="43.88545" lon="6.39957">
        <ele>1191</ele>
        <time>2022-06-09T17:08:46Z</time>
      </trkpt>
      <trkpt lat="43.88569" lon="6.40004">
        <ele>1195</ele>
        <time>2022-06-09T17:08:56Z</time>
      </trkpt>
      <trkpt lat="43.88592" lon="6.4004">
        <ele>1196</ele>
        <time>2022-06-09T17:09:04Z</time>
      </trkpt>
      <trkpt lat="43.8861" lon="6.40074">
        <ele>1194</ele>
        <time>2022-06-09T17:09:11Z</time>
      </trkpt>
      <trkpt lat="43.8862" lon="6.40083">
        <ele>1194</ele>
        <time>2022-06-09T17:09:14Z</time>
      </trkpt>
      <trkpt lat="43.88629" lon="6.40088">
        <ele>1194</ele>
        <time>2022-06-09T17:09:16Z</time>
      </trkpt>
      <trkpt lat="43.88644" lon="6.40083">
        <ele>1198</ele>
        <time>2022-06-09T17:09:20Z</time>
      </trkpt>
      <trkpt lat="43.8867" lon="6.40091">
        <ele>1200</ele>
        <time>2022-06-09T17:09:26Z</time>
      </trkpt>
      <trkpt lat="43.88695" lon="6.40102">
        <ele>1201</ele>
        <time>2022-06-09T17:09:32Z</time>
      </trkpt>
      <trkpt lat="43.88724" lon="6.40162">
        <ele>1192</ele>
        <time>2022-06-09T17:09:44Z</time>
      </trkpt>
      <trkpt lat="43.8875" lon="6.40232">
        <ele>1184</ele>
        <time>2022-06-09T17:09:57Z</time>
      </trkpt>
      <trkpt lat="43.88758" lon="6.40249">
        <ele>1183</ele>
        <time>2022-06-09T17:10:01Z</time>
      </trkpt>
      <trkpt lat="43.88771" lon="6.40264">
        <ele>1183</ele>
        <time>2022-06-09T17:10:05Z</time>
      </trkpt>
      <trkpt lat="43.88775" lon="6.40279">
        <ele>1181</ele>
        <time>2022-06-09T17:10:07Z</time>
      </trkpt>
      <trkpt lat="43.88778" lon="6.40317">
        <ele>1176</ele>
        <time>2022-06-09T17:10:14Z</time>
      </trkpt>
      <trkpt lat="43.88793" lon="6.40372">
        <ele>1172</ele>
        <time>2022-06-09T17:10:24Z</time>
      </trkpt>
      <trkpt lat="43.88811" lon="6.40382">
        <ele>1175</ele>
        <time>2022-06-09T17:10:28Z</time>
      </trkpt>
      <trkpt lat="43.88821" lon="6.40398">
        <ele>1176</ele>
        <time>2022-06-09T17:10:32Z</time>
      </trkpt>
      <trkpt lat="43.88814" lon="6.40445">
        <ele>1169</ele>
        <time>2022-06-09T17:10:40Z</time>
      </trkpt>
      <trkpt lat="43.88818" lon="6.40472">
        <ele>1166</ele>
        <time>2022-06-09T17:10:45Z</time>
      </trkpt>
      <trkpt lat="43.88835" lon="6.40491">
        <ele>1170</ele>
        <time>2022-06-09T17:10:50Z</time>
      </trkpt>
      <trkpt lat="43.88847" lon="6.40516">
        <ele>1171</ele>
        <time>2022-06-09T17:10:55Z</time>
      </trkpt>
      <trkpt lat="43.88849" lon="6.40513">
        <ele>1172</ele>
        <time>2022-06-09T17:10:55Z</time>
      </trkpt>
      <trkpt lat="43.88849" lon="6.4052">
        <ele>1171</ele>
        <time>2022-06-09T17:10:57Z</time>
      </trkpt>
      <trkpt lat="43.88866" lon="6.4055">
        <ele>1170</ele>
        <time>2022-06-09T17:11:03Z</time>
      </trkpt>
      <trkpt lat="43.88868" lon="6.40573">
        <ele>1165</ele>
        <time>2022-06-09T17:11:07Z</time>
      </trkpt>
      <trkpt lat="43.88863" lon="6.40595">
        <ele>1158</ele>
        <time>2022-06-09T17:11:11Z</time>
      </trkpt>
      <trkpt lat="43.88866" lon="6.406">
        <ele>1157</ele>
        <time>2022-06-09T17:11:12Z</time>
      </trkpt>
      <trkpt lat="43.8887" lon="6.406">
        <ele>1158</ele>
        <time>2022-06-09T17:11:13Z</time>
      </trkpt>
      <trkpt lat="43.88883" lon="6.40592">
        <ele>1164</ele>
        <time>2022-06-09T17:11:16Z</time>
      </trkpt>
      <trkpt lat="43.88899" lon="6.40588">
        <ele>1171</ele>
        <time>2022-06-09T17:11:20Z</time>
      </trkpt>
      <trkpt lat="43.88926" lon="6.40602">
        <ele>1171</ele>
        <time>2022-06-09T17:11:27Z</time>
      </trkpt>
      <trkpt lat="43.88945" lon="6.40604">
        <ele>1171</ele>
        <time>2022-06-09T17:11:31Z</time>
      </trkpt>
      <trkpt lat="43.88956" lon="6.40608">
        <ele>1170</ele>
        <time>2022-06-09T17:11:34Z</time>
      </trkpt>
      <trkpt lat="43.88988" lon="6.4063">
        <ele>1166</ele>
        <time>2022-06-09T17:11:42Z</time>
      </trkpt>
      <trkpt lat="43.89007" lon="6.40636">
        <ele>1165</ele>
        <time>2022-06-09T17:11:47Z</time>
      </trkpt>
      <trkpt lat="43.89022" lon="6.40632">
        <ele>1163</ele>
        <time>2022-06-09T17:11:50Z</time>
      </trkpt>
      <trkpt lat="43.89035" lon="6.40624">
        <ele>1163</ele>
        <time>2022-06-09T17:11:54Z</time>
      </trkpt>
      <trkpt lat="43.89054" lon="6.40617">
        <ele>1162</ele>
        <time>2022-06-09T17:11:58Z</time>
      </trkpt>
      <trkpt lat="43.89073" lon="6.40613">
        <ele>1160</ele>
        <time>2022-06-09T17:12:03Z</time>
      </trkpt>
      <trkpt lat="43.89077" lon="6.40614">
        <ele>1159</ele>
        <time>2022-06-09T17:12:04Z</time>
      </trkpt>
      <trkpt lat="43.89147" lon="6.40661">
        <ele>1140</ele>
        <time>2022-06-09T17:12:22Z</time>
      </trkpt>
      <trkpt lat="43.89173" lon="6.40673">
        <ele>1134</ele>
        <time>2022-06-09T17:12:28Z</time>
      </trkpt>
      <trkpt lat="43.89189" lon="6.40697">
        <ele>1125</ele>
        <time>2022-06-09T17:12:34Z</time>
      </trkpt>
      <trkpt lat="43.89198" lon="6.40699">
        <ele>1124</ele>
        <time>2022-06-09T17:12:36Z</time>
      </trkpt>
      <trkpt lat="43.89217" lon="6.40693">
        <ele>1125</ele>
        <time>2022-06-09T17:12:40Z</time>
      </trkpt>
      <trkpt lat="43.89222" lon="6.40695">
        <ele>1124</ele>
        <time>2022-06-09T17:12:42Z</time>
      </trkpt>
      <trkpt lat="43.89233" lon="6.40706">
        <ele>1120</ele>
        <time>2022-06-09T17:12:45Z</time>
      </trkpt>
      <trkpt lat="43.89239" lon="6.40722">
        <ele>1116</ele>
        <time>2022-06-09T17:12:48Z</time>
      </trkpt>
      <trkpt lat="43.89258" lon="6.40742">
        <ele>1109</ele>
        <time>2022-06-09T17:12:53Z</time>
      </trkpt>
      <trkpt lat="43.89264" lon="6.40745">
        <ele>1107</ele>
        <time>2022-06-09T17:12:55Z</time>
      </trkpt>
      <trkpt lat="43.89274" lon="6.4076">
        <ele>1101</ele>
        <time>2022-06-09T17:12:58Z</time>
      </trkpt>
      <trkpt lat="43.8928" lon="6.40764">
        <ele>1099</ele>
        <time>2022-06-09T17:13:00Z</time>
      </trkpt>
      <trkpt lat="43.89285" lon="6.40765">
        <ele>1098</ele>
        <time>2022-06-09T17:13:01Z</time>
      </trkpt>
      <trkpt lat="43.89292" lon="6.40759">
        <ele>1098</ele>
        <time>2022-06-09T17:13:03Z</time>
      </trkpt>
      <trkpt lat="43.89304" lon="6.40737">
        <ele>1101</ele>
        <time>2022-06-09T17:13:08Z</time>
      </trkpt>
      <trkpt lat="43.89315" lon="6.40733">
        <ele>1099</ele>
        <time>2022-06-09T17:13:10Z</time>
      </trkpt>
      <trkpt lat="43.89323" lon="6.4074">
        <ele>1097</ele>
        <time>2022-06-09T17:13:12Z</time>
      </trkpt>
      <trkpt lat="43.89342" lon="6.4074">
        <ele>1091</ele>
        <time>2022-06-09T17:13:17Z</time>
      </trkpt>
      <trkpt lat="43.89348" lon="6.40742">
        <ele>1089</ele>
        <time>2022-06-09T17:13:18Z</time>
      </trkpt>
      <trkpt lat="43.89362" lon="6.40755">
        <ele>1082</ele>
        <time>2022-06-09T17:13:22Z</time>
      </trkpt>
      <trkpt lat="43.89366" lon="6.40755">
        <ele>1081</ele>
        <time>2022-06-09T17:13:23Z</time>
      </trkpt>
      <trkpt lat="43.89392" lon="6.40747">
        <ele>1072</ele>
        <time>2022-06-09T17:13:29Z</time>
      </trkpt>
      <trkpt lat="43.89446" lon="6.40707">
        <ele>1057</ele>
        <time>2022-06-09T17:13:44Z</time>
      </trkpt>
      <trkpt lat="43.89464" lon="6.40704">
        <ele>1049</ele>
        <time>2022-06-09T17:13:48Z</time>
      </trkpt>
      <trkpt lat="43.89496" lon="6.4068">
        <ele>1039</ele>
        <time>2022-06-09T17:13:56Z</time>
      </trkpt>
      <trkpt lat="43.89525" lon="6.40673">
        <ele>1034</ele>
        <time>2022-06-09T17:14:03Z</time>
      </trkpt>
      <trkpt lat="43.89537" lon="6.40673">
        <ele>1032</ele>
        <time>2022-06-09T17:14:06Z</time>
      </trkpt>
      <trkpt lat="43.89565" lon="6.40684">
        <ele>1025</ele>
        <time>2022-06-09T17:14:13Z</time>
      </trkpt>
      <trkpt lat="43.89591" lon="6.40682">
        <ele>1021</ele>
        <time>2022-06-09T17:14:19Z</time>
      </trkpt>
      <trkpt lat="43.89626" lon="6.40655">
        <ele>1021</ele>
        <time>2022-06-09T17:14:28Z</time>
      </trkpt>
      <trkpt lat="43.89649" lon="6.40644">
        <ele>1021</ele>
        <time>2022-06-09T17:14:34Z</time>
      </trkpt>
      <trkpt lat="43.897" lon="6.40637">
        <ele>1013</ele>
        <time>2022-06-09T17:14:46Z</time>
      </trkpt>
      <trkpt lat="43.89746" lon="6.40615">
        <ele>1010</ele>
        <time>2022-06-09T17:14:57Z</time>
      </trkpt>
      <trkpt lat="43.89771" lon="6.40587">
        <ele>1009</ele>
        <time>2022-06-09T17:15:05Z</time>
      </trkpt>
      <trkpt lat="43.89776" lon="6.40577">
        <ele>1010</ele>
        <time>2022-06-09T17:15:07Z</time>
      </trkpt>
      <trkpt lat="43.89786" lon="6.40568">
        <ele>1008</ele>
        <time>2022-06-09T17:15:10Z</time>
      </trkpt>
      <trkpt lat="43.89812" lon="6.40524">
        <ele>1005</ele>
        <time>2022-06-09T17:15:19Z</time>
      </trkpt>
      <trkpt lat="43.89845" lon="6.40503">
        <ele>994</ele>
        <time>2022-06-09T17:15:28Z</time>
      </trkpt>
      <trkpt lat="43.89885" lon="6.40459">
        <ele>985</ele>
        <time>2022-06-09T17:15:40Z</time>
      </trkpt>
      <trkpt lat="43.89892" lon="6.40455">
        <ele>983</ele>
        <time>2022-06-09T17:15:41Z</time>
      </trkpt>
      <trkpt lat="43.89956" lon="6.40442">
        <ele>962</ele>
        <time>2022-06-09T17:15:57Z</time>
      </trkpt>
      <trkpt lat="43.90043" lon="6.40417">
        <ele>943</ele>
        <time>2022-06-09T17:16:17Z</time>
      </trkpt>
      <trkpt lat="43.90072" lon="6.40413">
        <ele>936</ele>
        <time>2022-06-09T17:16:24Z</time>
      </trkpt>
      <trkpt lat="43.901" lon="6.40418">
        <ele>928</ele>
        <time>2022-06-09T17:16:31Z</time>
      </trkpt>
      <trkpt lat="43.9016" lon="6.4046">
        <ele>906</ele>
        <time>2022-06-09T17:16:46Z</time>
      </trkpt>
      <trkpt lat="43.90189" lon="6.40464">
        <ele>901</ele>
        <time>2022-06-09T17:16:53Z</time>
      </trkpt>
      <trkpt lat="43.90201" lon="6.4047">
        <ele>898</ele>
        <time>2022-06-09T17:16:56Z</time>
      </trkpt>
      <trkpt lat="43.90208" lon="6.40506">
        <ele>892</ele>
        <time>2022-06-09T17:17:02Z</time>
      </trkpt>
      <trkpt lat="43.90218" lon="6.40536">
        <ele>888</ele>
        <time>2022-06-09T17:17:08Z</time>
      </trkpt>
      <trkpt lat="43.90226" lon="6.40551">
        <ele>886</ele>
        <time>2022-06-09T17:17:11Z</time>
      </trkpt>
      <trkpt lat="43.90237" lon="6.40564">
        <ele>883</ele>
        <time>2022-06-09T17:17:15Z</time>
      </trkpt>
      <trkpt lat="43.90243" lon="6.40562">
        <ele>883</ele>
        <time>2022-06-09T17:17:16Z</time>
      </trkpt>
      <trkpt lat="43.90266" lon="6.40539">
        <ele>881</ele>
        <time>2022-06-09T17:17:23Z</time>
      </trkpt>
      <trkpt lat="43.90286" lon="6.40491">
        <ele>882</ele>
        <time>2022-06-09T17:17:32Z</time>
      </trkpt>
      <trkpt lat="43.90296" lon="6.40479">
        <ele>882</ele>
        <time>2022-06-09T17:17:35Z</time>
      </trkpt>
      <trkpt lat="43.90333" lon="6.40445">
        <ele>878</ele>
        <time>2022-06-09T17:17:45Z</time>
      </trkpt>
      <trkpt lat="43.90342" lon="6.40445">
        <ele>876</ele>
        <time>2022-06-09T17:17:47Z</time>
      </trkpt>
      <trkpt lat="43.90346" lon="6.40449">
        <ele>875</ele>
        <time>2022-06-09T17:17:49Z</time>
      </trkpt>
      <trkpt lat="43.90351" lon="6.40463">
        <ele>873</ele>
        <time>2022-06-09T17:17:51Z</time>
      </trkpt>
      <trkpt lat="43.90357" lon="6.40517">
        <ele>868</ele>
        <time>2022-06-09T17:18:00Z</time>
      </trkpt>
      <trkpt lat="43.90369" lon="6.40562">
        <ele>864</ele>
        <time>2022-06-09T17:18:09Z</time>
      </trkpt>
      <trkpt lat="43.90376" lon="6.406">
        <ele>861</ele>
        <time>2022-06-09T17:18:15Z</time>
      </trkpt>
      <trkpt lat="43.90392" lon="6.40651">
        <ele>857</ele>
        <time>2022-06-09T17:18:24Z</time>
      </trkpt>
      <trkpt lat="43.90394" lon="6.40671">
        <ele>856</ele>
        <time>2022-06-09T17:18:28Z</time>
      </trkpt>
      <trkpt lat="43.90398" lon="6.40682">
        <ele>855</ele>
        <time>2022-06-09T17:18:30Z</time>
      </trkpt>
      <trkpt lat="43.90401" lon="6.40683">
        <ele>854</ele>
        <time>2022-06-09T17:18:31Z</time>
      </trkpt>
      <trkpt lat="43.90406" lon="6.40676">
        <ele>855</ele>
        <time>2022-06-09T17:18:32Z</time>
      </trkpt>
      <trkpt lat="43.90417" lon="6.40668">
        <ele>854</ele>
        <time>2022-06-09T17:18:35Z</time>
      </trkpt>
      <trkpt lat="43.90435" lon="6.40661">
        <ele>850</ele>
        <time>2022-06-09T17:18:40Z</time>
      </trkpt>
      <trkpt lat="43.90442" lon="6.40663">
        <ele>849</ele>
        <time>2022-06-09T17:18:41Z</time>
      </trkpt>
      <trkpt lat="43.90471" lon="6.40685">
        <ele>843</ele>
        <time>2022-06-09T17:18:49Z</time>
      </trkpt>
      <trkpt lat="43.90517" lon="6.40701">
        <ele>836</ele>
        <time>2022-06-09T17:19:00Z</time>
      </trkpt>
      <trkpt lat="43.90549" lon="6.40721">
        <ele>832</ele>
        <time>2022-06-09T17:19:08Z</time>
      </trkpt>
      <trkpt lat="43.90556" lon="6.40722">
        <ele>831</ele>
        <time>2022-06-09T17:19:10Z</time>
      </trkpt>
      <trkpt lat="43.90583" lon="6.40714">
        <ele>827</ele>
        <time>2022-06-09T17:19:16Z</time>
      </trkpt>
      <trkpt lat="43.90615" lon="6.40711">
        <ele>824</ele>
        <time>2022-06-09T17:19:24Z</time>
      </trkpt>
      <trkpt lat="43.90651" lon="6.407">
        <ele>821</ele>
        <time>2022-06-09T17:19:32Z</time>
      </trkpt>
      <trkpt lat="43.90677" lon="6.40687">
        <ele>818</ele>
        <time>2022-06-09T17:19:39Z</time>
      </trkpt>
      <trkpt lat="43.90694" lon="6.40687">
        <ele>817</ele>
        <time>2022-06-09T17:19:43Z</time>
      </trkpt>
      <trkpt lat="43.90726" lon="6.40694">
        <ele>815</ele>
        <time>2022-06-09T17:19:50Z</time>
      </trkpt>
      <trkpt lat="43.90738" lon="6.40693">
        <ele>814</ele>
        <time>2022-06-09T17:19:53Z</time>
      </trkpt>
      <trkpt lat="43.90799" lon="6.40613">
        <ele>806</ele>
        <time>2022-06-09T17:20:13Z</time>
      </trkpt>
      <trkpt lat="43.90815" lon="6.40596">
        <ele>804</ele>
        <time>2022-06-09T17:20:18Z</time>
      </trkpt>
      <trkpt lat="43.90824" lon="6.40593">
        <ele>804</ele>
        <time>2022-06-09T17:20:20Z</time>
      </trkpt>
      <trkpt lat="43.90889" lon="6.40601">
        <ele>800</ele>
        <time>2022-06-09T17:20:35Z</time>
      </trkpt>
      <trkpt lat="43.9094" lon="6.40612">
        <ele>798</ele>
        <time>2022-06-09T17:20:47Z</time>
      </trkpt>
      <trkpt lat="43.9103" lon="6.40625">
        <ele>797</ele>
        <time>2022-06-09T17:21:08Z</time>
      </trkpt>
      <trkpt lat="43.91093" lon="6.40613">
        <ele>794</ele>
        <time>2022-06-09T17:21:23Z</time>
      </trkpt>
      <trkpt lat="43.91132" lon="6.40612">
        <ele>793</ele>
        <time>2022-06-09T17:21:32Z</time>
      </trkpt>
      <trkpt lat="43.91214" lon="6.40593">
        <ele>786</ele>
        <time>2022-06-09T17:21:51Z</time>
      </trkpt>
      <trkpt lat="43.91233" lon="6.40594">
        <ele>785</ele>
        <time>2022-06-09T17:21:56Z</time>
      </trkpt>
      <trkpt lat="43.91253" lon="6.40589">
        <ele>784</ele>
        <time>2022-06-09T17:22:01Z</time>
      </trkpt>
      <trkpt lat="43.91282" lon="6.406">
        <ele>785</ele>
        <time>2022-06-09T17:22:08Z</time>
      </trkpt>
      <trkpt lat="43.91299" lon="6.406">
        <ele>785</ele>
        <time>2022-06-09T17:22:12Z</time>
      </trkpt>
      <trkpt lat="43.91299" lon="6.40604">
        <ele>785</ele>
        <time>2022-06-09T17:22:12Z</time>
      </trkpt>
      <trkpt lat="43.91293" lon="6.40599">
        <ele>785</ele>
        <time>2022-06-09T17:22:14Z</time>
      </trkpt>
      <trkpt lat="43.91293" lon="6.40601">
        <ele>785</ele>
        <time>2022-06-09T17:22:14Z</time>
      </trkpt>
      <trkpt lat="43.91306" lon="6.4062">
        <ele>785</ele>
        <time>2022-06-09T17:22:19Z</time>
      </trkpt>
      <trkpt lat="43.91324" lon="6.40663">
        <ele>784</ele>
        <time>2022-06-09T17:22:27Z</time>
      </trkpt>
      <trkpt lat="43.91326" lon="6.4069">
        <ele>783</ele>
        <time>2022-06-09T17:22:32Z</time>
      </trkpt>
      <trkpt lat="43.91334" lon="6.4072">
        <ele>781</ele>
        <time>2022-06-09T17:22:37Z</time>
      </trkpt>
      <trkpt lat="43.91341" lon="6.40733">
        <ele>780</ele>
        <time>2022-06-09T17:22:40Z</time>
      </trkpt>
      <trkpt lat="43.91353" lon="6.40747">
        <ele>779</ele>
        <time>2022-06-09T17:22:43Z</time>
      </trkpt>
      <trkpt lat="43.91349" lon="6.40768">
        <ele>778</ele>
        <time>2022-06-09T17:22:47Z</time>
      </trkpt>
      <trkpt lat="43.9135" lon="6.40778">
        <ele>778</ele>
        <time>2022-06-09T17:22:49Z</time>
      </trkpt>
      <trkpt lat="43.91352" lon="6.40778">
        <ele>778</ele>
        <time>2022-06-09T17:22:49Z</time>
      </trkpt>
      <trkpt lat="43.91355" lon="6.40773">
        <ele>778</ele>
        <time>2022-06-09T17:22:50Z</time>
      </trkpt>
      <trkpt lat="43.91339" lon="6.40753">
        <ele>780</ele>
        <time>2022-06-09T17:22:55Z</time>
      </trkpt>
      <trkpt lat="43.91336" lon="6.40742">
        <ele>780</ele>
        <time>2022-06-09T17:22:57Z</time>
      </trkpt>
      <trkpt lat="43.91321" lon="6.40725">
        <ele>782</ele>
        <time>2022-06-09T17:23:02Z</time>
      </trkpt>
      <trkpt lat="43.91324" lon="6.40694">
        <ele>783</ele>
        <time>2022-06-09T17:23:07Z</time>
      </trkpt>
      <trkpt lat="43.91313" lon="6.40635">
        <ele>785</ele>
        <time>2022-06-09T17:23:17Z</time>
      </trkpt>
      <trkpt lat="43.91307" lon="6.40626">
        <ele>785</ele>
        <time>2022-06-09T17:23:19Z</time>
      </trkpt>
      <trkpt lat="43.91315" lon="6.40639">
        <ele>784</ele>
        <time>2022-06-09T17:23:22Z</time>
      </trkpt>
      <trkpt lat="43.91318" lon="6.40652">
        <ele>784</ele>
        <time>2022-06-09T17:23:25Z</time>
      </trkpt>
      <trkpt lat="43.91317" lon="6.40676">
        <ele>784</ele>
        <time>2022-06-09T17:23:29Z</time>
      </trkpt>
      <trkpt lat="43.91321" lon="6.40702">
        <ele>783</ele>
        <time>2022-06-09T17:23:33Z</time>
      </trkpt>
      <trkpt lat="43.91327" lon="6.40713">
        <ele>782</ele>
        <time>2022-06-09T17:23:35Z</time>
      </trkpt>
      <trkpt lat="43.9134" lon="6.40719">
        <ele>781</ele>
        <time>2022-06-09T17:23:39Z</time>
      </trkpt>
      <trkpt lat="43.91356" lon="6.40736">
        <ele>779</ele>
        <time>2022-06-09T17:23:43Z</time>
      </trkpt>
      <trkpt lat="43.91352" lon="6.40754">
        <ele>779</ele>
        <time>2022-06-09T17:23:47Z</time>
      </trkpt>
      <trkpt lat="43.91354" lon="6.40756">
        <ele>779</ele>
        <time>2022-06-09T17:23:47Z</time>
      </trkpt>
      <trkpt lat="43.91353" lon="6.40761">
        <ele>778</ele>
        <time>2022-06-09T17:23:48Z</time>
      </trkpt>
      <trkpt lat="43.91341" lon="6.40749">
        <ele>780</ele>
        <time>2022-06-09T17:23:51Z</time>
      </trkpt>
      <trkpt lat="43.91338" lon="6.40737">
        <ele>780</ele>
        <time>2022-06-09T17:23:54Z</time>
      </trkpt>
      <trkpt lat="43.91326" lon="6.40724">
        <ele>782</ele>
        <time>2022-06-09T17:23:57Z</time>
      </trkpt>
      <trkpt lat="43.91324" lon="6.40713">
        <ele>782</ele>
        <time>2022-06-09T17:23:59Z</time>
      </trkpt>
      <trkpt lat="43.91329" lon="6.40703">
        <ele>782</ele>
        <time>2022-06-09T17:24:01Z</time>
      </trkpt>
      <trkpt lat="43.91305" lon="6.40622">
        <ele>785</ele>
        <time>2022-06-09T17:24:16Z</time>
      </trkpt>
      <trkpt lat="43.91304" lon="6.40611">
        <ele>785</ele>
        <time>2022-06-09T17:24:18Z</time>
      </trkpt>
      <trkpt lat="43.91306" lon="6.40608">
        <ele>785</ele>
        <time>2022-06-09T17:24:18Z</time>
      </trkpt>
      <trkpt lat="43.91313" lon="6.40606">
        <ele>785</ele>
        <time>2022-06-09T17:24:20Z</time>
      </trkpt>
      <trkpt lat="43.9133" lon="6.40608">
        <ele>785</ele>
        <time>2022-06-09T17:24:24Z</time>
      </trkpt>
      <trkpt lat="43.91407" lon="6.40652">
        <ele>780</ele>
        <time>2022-06-09T17:24:43Z</time>
      </trkpt>
      <trkpt lat="43.91419" lon="6.40662">
        <ele>778</ele>
        <time>2022-06-09T17:24:47Z</time>
      </trkpt>
      <trkpt lat="43.91422" lon="6.40661">
        <ele>778</ele>
        <time>2022-06-09T17:24:47Z</time>
      </trkpt>
      <trkpt lat="43.91425" lon="6.40652">
        <ele>779</ele>
        <time>2022-06-09T17:24:49Z</time>
      </trkpt>
      <trkpt lat="43.91419" lon="6.4063">
        <ele>781</ele>
        <time>2022-06-09T17:24:53Z</time>
      </trkpt>
      <trkpt lat="43.91408" lon="6.40616">
        <ele>782</ele>
        <time>2022-06-09T17:24:57Z</time>
      </trkpt>
      <trkpt lat="43.91406" lon="6.40615">
        <ele>782</ele>
        <time>2022-06-09T17:24:57Z</time>
      </trkpt>
      <trkpt lat="43.91405" lon="6.40617">
        <ele>782</ele>
        <time>2022-06-09T17:24:57Z</time>
      </trkpt>
      <trkpt lat="43.91406" lon="6.40613">
        <ele>782</ele>
        <time>2022-06-09T17:24:58Z</time>
      </trkpt>
      <trkpt lat="43.91406" lon="6.40616">
        <ele>782</ele>
        <time>2022-06-09T17:24:59Z</time>
      </trkpt>
      <trkpt lat="43.91403" lon="6.40615">
        <ele>782</ele>
        <time>2022-06-09T17:24:59Z</time>
      </trkpt>
      <trkpt lat="43.9141" lon="6.40612">
        <ele>782</ele>
        <time>2022-06-09T17:25:01Z</time>
      </trkpt>
      <trkpt lat="43.91406" lon="6.40615">
        <ele>782</ele>
        <time>2022-06-09T17:25:02Z</time>
      </trkpt>
      <trkpt lat="43.91413" lon="6.40628">
        <ele>781</ele>
        <time>2022-06-09T17:25:05Z</time>
      </trkpt>
      <trkpt lat="43.91425" lon="6.40641">
        <ele>780</ele>
        <time>2022-06-09T17:25:08Z</time>
      </trkpt>
      <trkpt lat="43.91425" lon="6.40652">
        <ele>779</ele>
        <time>2022-06-09T17:25:10Z</time>
      </trkpt>
      <trkpt lat="43.91421" lon="6.40666">
        <ele>778</ele>
        <time>2022-06-09T17:25:13Z</time>
      </trkpt>
      <trkpt lat="43.91423" lon="6.4067">
        <ele>778</ele>
        <time>2022-06-09T17:25:14Z</time>
      </trkpt>
      <trkpt lat="43.91454" lon="6.4071">
        <ele>776</ele>
        <time>2022-06-09T17:25:24Z</time>
      </trkpt>
      <trkpt lat="43.91465" lon="6.40728">
        <ele>776</ele>
        <time>2022-06-09T17:25:28Z</time>
      </trkpt>
      <trkpt lat="43.91486" lon="6.40752">
        <ele>776</ele>
        <time>2022-06-09T17:25:34Z</time>
      </trkpt>
      <trkpt lat="43.91513" lon="6.40755">
        <ele>777</ele>
        <time>2022-06-09T17:25:40Z</time>
      </trkpt>
      <trkpt lat="43.91523" lon="6.40761">
        <ele>777</ele>
        <time>2022-06-09T17:25:43Z</time>
      </trkpt>
      <trkpt lat="43.91562" lon="6.40806">
        <ele>777</ele>
        <time>2022-06-09T17:25:55Z</time>
      </trkpt>
      <trkpt lat="43.91582" lon="6.40814">
        <ele>777</ele>
        <time>2022-06-09T17:25:59Z</time>
      </trkpt>
      <trkpt lat="43.91596" lon="6.40813">
        <ele>778</ele>
        <time>2022-06-09T17:26:03Z</time>
      </trkpt>
      <trkpt lat="43.91613" lon="6.40817">
        <ele>778</ele>
        <time>2022-06-09T17:26:07Z</time>
      </trkpt>
      <trkpt lat="43.91616" lon="6.40821">
        <ele>778</ele>
        <time>2022-06-09T17:26:08Z</time>
      </trkpt>
      <trkpt lat="43.91623" lon="6.40824">
        <ele>778</ele>
        <time>2022-06-09T17:26:09Z</time>
      </trkpt>
      <trkpt lat="43.91638" lon="6.40851">
        <ele>779</ele>
        <time>2022-06-09T17:26:15Z</time>
      </trkpt>
      <trkpt lat="43.91643" lon="6.40874">
        <ele>781</ele>
        <time>2022-06-09T17:26:19Z</time>
      </trkpt>
      <trkpt lat="43.91643" lon="6.40906">
        <ele>783</ele>
        <time>2022-06-09T17:26:25Z</time>
      </trkpt>
      <trkpt lat="43.9164" lon="6.40911">
        <ele>784</ele>
        <time>2022-06-09T17:26:26Z</time>
      </trkpt>
      <trkpt lat="43.91642" lon="6.40917">
        <ele>784</ele>
        <time>2022-06-09T17:26:27Z</time>
      </trkpt>
      <trkpt lat="43.91649" lon="6.40921">
        <ele>785</ele>
        <time>2022-06-09T17:26:29Z</time>
      </trkpt>
      <trkpt lat="43.91712" lon="6.4093">
        <ele>785</ele>
        <time>2022-06-09T17:26:43Z</time>
      </trkpt>
      <trkpt lat="43.91786" lon="6.40923">
        <ele>783</ele>
        <time>2022-06-09T17:27:01Z</time>
      </trkpt>
      <trkpt lat="43.91847" lon="6.40909">
        <ele>782</ele>
        <time>2022-06-09T17:27:15Z</time>
      </trkpt>
      <trkpt lat="43.91902" lon="6.40879">
        <ele>781</ele>
        <time>2022-06-09T17:27:29Z</time>
      </trkpt>
      <trkpt lat="43.91934" lon="6.40846">
        <ele>775</ele>
        <time>2022-06-09T17:27:38Z</time>
      </trkpt>
      <trkpt lat="43.91983" lon="6.40787">
        <ele>770</ele>
        <time>2022-06-09T17:27:53Z</time>
      </trkpt>
      <trkpt lat="43.9201" lon="6.40759">
        <ele>769</ele>
        <time>2022-06-09T17:28:01Z</time>
      </trkpt>
      <trkpt lat="43.92018" lon="6.40761">
        <ele>770</ele>
        <time>2022-06-09T17:28:03Z</time>
      </trkpt>
      <trkpt lat="43.92049" lon="6.40804">
        <ele>774</ele>
        <time>2022-06-09T17:28:13Z</time>
      </trkpt>
      <trkpt lat="43.92058" lon="6.40825">
        <ele>776</ele>
        <time>2022-06-09T17:28:17Z</time>
      </trkpt>
      <trkpt lat="43.92095" lon="6.40877">
        <ele>783</ele>
        <time>2022-06-09T17:28:30Z</time>
      </trkpt>
      <trkpt lat="43.92117" lon="6.40925">
        <ele>790</ele>
        <time>2022-06-09T17:28:39Z</time>
      </trkpt>
      <trkpt lat="43.92143" lon="6.40997">
        <ele>790</ele>
        <time>2022-06-09T17:28:53Z</time>
      </trkpt>
      <trkpt lat="43.9216" lon="6.41037">
        <ele>789</ele>
        <time>2022-06-09T17:29:01Z</time>
      </trkpt>
      <trkpt lat="43.92177" lon="6.41066">
        <ele>789</ele>
        <time>2022-06-09T17:29:07Z</time>
      </trkpt>
      <trkpt lat="43.92201" lon="6.41092">
        <ele>791</ele>
        <time>2022-06-09T17:29:14Z</time>
      </trkpt>
      <trkpt lat="43.92213" lon="6.41111">
        <ele>791</ele>
        <time>2022-06-09T17:29:18Z</time>
      </trkpt>
      <trkpt lat="43.92236" lon="6.41128">
        <ele>791</ele>
        <time>2022-06-09T17:29:24Z</time>
      </trkpt>
      <trkpt lat="43.92284" lon="6.41152">
        <ele>790</ele>
        <time>2022-06-09T17:29:36Z</time>
      </trkpt>
      <trkpt lat="43.92303" lon="6.41167">
        <ele>789</ele>
        <time>2022-06-09T17:29:41Z</time>
      </trkpt>
      <trkpt lat="43.92326" lon="6.41173">
        <ele>790</ele>
        <time>2022-06-09T17:29:47Z</time>
      </trkpt>
      <trkpt lat="43.92346" lon="6.4117">
        <ele>791</ele>
        <time>2022-06-09T17:29:52Z</time>
      </trkpt>
      <trkpt lat="43.92382" lon="6.41156">
        <ele>794</ele>
        <time>2022-06-09T17:30:00Z</time>
      </trkpt>
      <trkpt lat="43.92389" lon="6.41152">
        <ele>795</ele>
        <time>2022-06-09T17:30:02Z</time>
      </trkpt>
      <trkpt lat="43.92393" lon="6.41132">
        <ele>798</ele>
        <time>2022-06-09T17:30:06Z</time>
      </trkpt>
      <trkpt lat="43.92401" lon="6.41114">
        <ele>801</ele>
        <time>2022-06-09T17:30:09Z</time>
      </trkpt>
      <trkpt lat="43.9241" lon="6.41102">
        <ele>803</ele>
        <time>2022-06-09T17:30:12Z</time>
      </trkpt>
      <trkpt lat="43.92423" lon="6.41094">
        <ele>805</ele>
        <time>2022-06-09T17:30:15Z</time>
      </trkpt>
      <trkpt lat="43.92445" lon="6.41097">
        <ele>806</ele>
        <time>2022-06-09T17:30:21Z</time>
      </trkpt>
      <trkpt lat="43.92471" lon="6.41118">
        <ele>806</ele>
        <time>2022-06-09T17:30:28Z</time>
      </trkpt>
      <trkpt lat="43.92487" lon="6.41138">
        <ele>805</ele>
        <time>2022-06-09T17:30:33Z</time>
      </trkpt>
      <trkpt lat="43.92512" lon="6.41157">
        <ele>807</ele>
        <time>2022-06-09T17:30:39Z</time>
      </trkpt>
      <trkpt lat="43.92536" lon="6.41182">
        <ele>809</ele>
        <time>2022-06-09T17:30:46Z</time>
      </trkpt>
      <trkpt lat="43.92547" lon="6.41199">
        <ele>809</ele>
        <time>2022-06-09T17:30:50Z</time>
      </trkpt>
      <trkpt lat="43.92552" lon="6.41219">
        <ele>809</ele>
        <time>2022-06-09T17:30:54Z</time>
      </trkpt>
      <trkpt lat="43.92561" lon="6.41231">
        <ele>809</ele>
        <time>2022-06-09T17:30:57Z</time>
      </trkpt>
      <trkpt lat="43.9259" lon="6.41234">
        <ele>813</ele>
        <time>2022-06-09T17:31:03Z</time>
      </trkpt>
      <trkpt lat="43.92632" lon="6.41251">
        <ele>820</ele>
        <time>2022-06-09T17:31:14Z</time>
      </trkpt>
      <trkpt lat="43.9267" lon="6.41254">
        <ele>828</ele>
        <time>2022-06-09T17:31:23Z</time>
      </trkpt>
      <trkpt lat="43.92694" lon="6.41266">
        <ele>831</ele>
        <time>2022-06-09T17:31:28Z</time>
      </trkpt>
      <trkpt lat="43.92708" lon="6.41265">
        <ele>833</ele>
        <time>2022-06-09T17:31:32Z</time>
      </trkpt>
      <trkpt lat="43.9272" lon="6.41259">
        <ele>834</ele>
        <time>2022-06-09T17:31:35Z</time>
      </trkpt>
      <trkpt lat="43.92734" lon="6.41241">
        <ele>836</ele>
        <time>2022-06-09T17:31:39Z</time>
      </trkpt>
      <trkpt lat="43.92743" lon="6.41236">
        <ele>838</ele>
        <time>2022-06-09T17:31:41Z</time>
      </trkpt>
      <trkpt lat="43.92766" lon="6.41231">
        <ele>841</ele>
        <time>2022-06-09T17:31:47Z</time>
      </trkpt>
      <trkpt lat="43.92778" lon="6.41232">
        <ele>843</ele>
        <time>2022-06-09T17:31:50Z</time>
      </trkpt>
      <trkpt lat="43.92785" lon="6.41242">
        <ele>844</ele>
        <time>2022-06-09T17:31:52Z</time>
      </trkpt>
      <trkpt lat="43.92789" lon="6.41254">
        <ele>845</ele>
        <time>2022-06-09T17:31:54Z</time>
      </trkpt>
      <trkpt lat="43.92791" lon="6.41286">
        <ele>846</ele>
        <time>2022-06-09T17:32:00Z</time>
      </trkpt>
      <trkpt lat="43.92795" lon="6.41299">
        <ele>847</ele>
        <time>2022-06-09T17:32:02Z</time>
      </trkpt>
      <trkpt lat="43.92803" lon="6.41294">
        <ele>848</ele>
        <time>2022-06-09T17:32:04Z</time>
      </trkpt>
      <trkpt lat="43.92816" lon="6.41276">
        <ele>850</ele>
        <time>2022-06-09T17:32:08Z</time>
      </trkpt>
      <trkpt lat="43.92842" lon="6.41249">
        <ele>856</ele>
        <time>2022-06-09T17:32:16Z</time>
      </trkpt>
      <trkpt lat="43.92857" lon="6.41203">
        <ele>859</ele>
        <time>2022-06-09T17:32:24Z</time>
      </trkpt>
      <trkpt lat="43.92865" lon="6.41169">
        <ele>861</ele>
        <time>2022-06-09T17:32:30Z</time>
      </trkpt>
      <trkpt lat="43.9287" lon="6.41167">
        <ele>862</ele>
        <time>2022-06-09T17:32:32Z</time>
      </trkpt>
      <trkpt lat="43.92876" lon="6.41175">
        <ele>864</ele>
        <time>2022-06-09T17:32:34Z</time>
      </trkpt>
      <trkpt lat="43.92871" lon="6.41214">
        <ele>864</ele>
        <time>2022-06-09T17:32:40Z</time>
      </trkpt>
      <trkpt lat="43.92873" lon="6.4123">
        <ele>866</ele>
        <time>2022-06-09T17:32:43Z</time>
      </trkpt>
      <trkpt lat="43.92891" lon="6.4128">
        <ele>874</ele>
        <time>2022-06-09T17:32:52Z</time>
      </trkpt>
      <trkpt lat="43.92897" lon="6.41317">
        <ele>877</ele>
        <time>2022-06-09T17:32:59Z</time>
      </trkpt>
      <trkpt lat="43.92909" lon="6.41322">
        <ele>881</ele>
        <time>2022-06-09T17:33:02Z</time>
      </trkpt>
      <trkpt lat="43.92914" lon="6.41315">
        <ele>883</ele>
        <time>2022-06-09T17:33:03Z</time>
      </trkpt>
      <trkpt lat="43.92926" lon="6.41251">
        <ele>887</ele>
        <time>2022-06-09T17:33:14Z</time>
      </trkpt>
      <trkpt lat="43.92939" lon="6.41228">
        <ele>892</ele>
        <time>2022-06-09T17:33:19Z</time>
      </trkpt>
      <trkpt lat="43.92945" lon="6.41212">
        <ele>894</ele>
        <time>2022-06-09T17:33:22Z</time>
      </trkpt>
      <trkpt lat="43.92946" lon="6.41202">
        <ele>893</ele>
        <time>2022-06-09T17:33:24Z</time>
      </trkpt>
      <trkpt lat="43.92943" lon="6.41189">
        <ele>891</ele>
        <time>2022-06-09T17:33:26Z</time>
      </trkpt>
      <trkpt lat="43.9295" lon="6.41164">
        <ele>893</ele>
        <time>2022-06-09T17:33:31Z</time>
      </trkpt>
      <trkpt lat="43.92953" lon="6.41156">
        <ele>893</ele>
        <time>2022-06-09T17:33:32Z</time>
      </trkpt>
      <trkpt lat="43.92967" lon="6.4114">
        <ele>899</ele>
        <time>2022-06-09T17:33:37Z</time>
      </trkpt>
      <trkpt lat="43.9297" lon="6.4114">
        <ele>900</ele>
        <time>2022-06-09T17:33:37Z</time>
      </trkpt>
      <trkpt lat="43.92974" lon="6.4115">
        <ele>903</ele>
        <time>2022-06-09T17:33:39Z</time>
      </trkpt>
      <trkpt lat="43.92975" lon="6.41172">
        <ele>906</ele>
        <time>2022-06-09T17:33:43Z</time>
      </trkpt>
      <trkpt lat="43.92967" lon="6.41238">
        <ele>907</ele>
        <time>2022-06-09T17:33:54Z</time>
      </trkpt>
      <trkpt lat="43.92956" lon="6.41285">
        <ele>903</ele>
        <time>2022-06-09T17:34:03Z</time>
      </trkpt>
      <trkpt lat="43.92954" lon="6.41304">
        <ele>903</ele>
        <time>2022-06-09T17:34:06Z</time>
      </trkpt>
      <trkpt lat="43.92958" lon="6.41321">
        <ele>905</ele>
        <time>2022-06-09T17:34:09Z</time>
      </trkpt>
      <trkpt lat="43.92967" lon="6.41338">
        <ele>911</ele>
        <time>2022-06-09T17:34:12Z</time>
      </trkpt>
      <trkpt lat="43.92969" lon="6.4135">
        <ele>913</ele>
        <time>2022-06-09T17:34:14Z</time>
      </trkpt>
      <trkpt lat="43.92968" lon="6.41386">
        <ele>914</ele>
        <time>2022-06-09T17:34:21Z</time>
      </trkpt>
      <trkpt lat="43.92962" lon="6.41421">
        <ele>913</ele>
        <time>2022-06-09T17:34:27Z</time>
      </trkpt>
      <trkpt lat="43.92962" lon="6.41474">
        <ele>920</ele>
        <time>2022-06-09T17:34:35Z</time>
      </trkpt>
      <trkpt lat="43.9296" lon="6.41498">
        <ele>922</ele>
        <time>2022-06-09T17:34:40Z</time>
      </trkpt>
      <trkpt lat="43.92945" lon="6.41537">
        <ele>918</ele>
        <time>2022-06-09T17:34:47Z</time>
      </trkpt>
      <trkpt lat="43.92939" lon="6.4158">
        <ele>919</ele>
        <time>2022-06-09T17:34:54Z</time>
      </trkpt>
      <trkpt lat="43.92942" lon="6.41589">
        <ele>920</ele>
        <time>2022-06-09T17:34:56Z</time>
      </trkpt>
      <trkpt lat="43.92994" lon="6.41652">
        <ele>945</ele>
        <time>2022-06-09T17:35:12Z</time>
      </trkpt>
      <trkpt lat="43.92998" lon="6.41666">
        <ele>946</ele>
        <time>2022-06-09T17:35:15Z</time>
      </trkpt>
      <trkpt lat="43.92998" lon="6.41678">
        <ele>946</ele>
        <time>2022-06-09T17:35:17Z</time>
      </trkpt>
      <trkpt lat="43.92993" lon="6.41693">
        <ele>943</ele>
        <time>2022-06-09T17:35:19Z</time>
      </trkpt>
      <trkpt lat="43.92991" lon="6.41713">
        <ele>941</ele>
        <time>2022-06-09T17:35:23Z</time>
      </trkpt>
      <trkpt lat="43.92995" lon="6.41733">
        <ele>942</ele>
        <time>2022-06-09T17:35:26Z</time>
      </trkpt>
      <trkpt lat="43.93007" lon="6.41767">
        <ele>942</ele>
        <time>2022-06-09T17:35:33Z</time>
      </trkpt>
      <trkpt lat="43.93018" lon="6.41786">
        <ele>940</ele>
        <time>2022-06-09T17:35:37Z</time>
      </trkpt>
      <trkpt lat="43.93029" lon="6.41797">
        <ele>939</ele>
        <time>2022-06-09T17:35:40Z</time>
      </trkpt>
      <trkpt lat="43.93052" lon="6.41799">
        <ele>944</ele>
        <time>2022-06-09T17:35:45Z</time>
      </trkpt>
      <trkpt lat="43.93081" lon="6.41798">
        <ele>950</ele>
        <time>2022-06-09T17:35:52Z</time>
      </trkpt>
      <trkpt lat="43.93135" lon="6.4183">
        <ele>947</ele>
        <time>2022-06-09T17:36:06Z</time>
      </trkpt>
      <trkpt lat="43.93157" lon="6.41839">
        <ele>947</ele>
        <time>2022-06-09T17:36:11Z</time>
      </trkpt>
      <trkpt lat="43.93171" lon="6.4184">
        <ele>948</ele>
        <time>2022-06-09T17:36:14Z</time>
      </trkpt>
      <trkpt lat="43.93185" lon="6.41834">
        <ele>951</ele>
        <time>2022-06-09T17:36:18Z</time>
      </trkpt>
      <trkpt lat="43.932" lon="6.41824">
        <ele>955</ele>
        <time>2022-06-09T17:36:22Z</time>
      </trkpt>
      <trkpt lat="43.93244" lon="6.41823">
        <ele>960</ele>
        <time>2022-06-09T17:36:32Z</time>
      </trkpt>
      <trkpt lat="43.93261" lon="6.4183">
        <ele>962</ele>
        <time>2022-06-09T17:36:36Z</time>
      </trkpt>
      <trkpt lat="43.93276" lon="6.41847">
        <ele>962</ele>
        <time>2022-06-09T17:36:41Z</time>
      </trkpt>
      <trkpt lat="43.93294" lon="6.41874">
        <ele>962</ele>
        <time>2022-06-09T17:36:47Z</time>
      </trkpt>
      <trkpt lat="43.93317" lon="6.41899">
        <ele>963</ele>
        <time>2022-06-09T17:36:54Z</time>
      </trkpt>
      <trkpt lat="43.93345" lon="6.41944">
        <ele>963</ele>
        <time>2022-06-09T17:37:04Z</time>
      </trkpt>
      <trkpt lat="43.93375" lon="6.41978">
        <ele>965</ele>
        <time>2022-06-09T17:37:13Z</time>
      </trkpt>
      <trkpt lat="43.93391" lon="6.41991">
        <ele>966</ele>
        <time>2022-06-09T17:37:17Z</time>
      </trkpt>
      <trkpt lat="43.93407" lon="6.41998">
        <ele>969</ele>
        <time>2022-06-09T17:37:21Z</time>
      </trkpt>
      <trkpt lat="43.9343" lon="6.42013">
        <ele>969</ele>
        <time>2022-06-09T17:37:27Z</time>
      </trkpt>
      <trkpt lat="43.93446" lon="6.42016">
        <ele>969</ele>
        <time>2022-06-09T17:37:31Z</time>
      </trkpt>
      <trkpt lat="43.93496" lon="6.42003">
        <ele>977</ele>
        <time>2022-06-09T17:37:43Z</time>
      </trkpt>
      <trkpt lat="43.93543" lon="6.42">
        <ele>976</ele>
        <time>2022-06-09T17:37:54Z</time>
      </trkpt>
      <trkpt lat="43.93557" lon="6.41994">
        <ele>978</ele>
        <time>2022-06-09T17:37:57Z</time>
      </trkpt>
      <trkpt lat="43.93568" lon="6.41981">
        <ele>983</ele>
        <time>2022-06-09T17:38:00Z</time>
      </trkpt>
      <trkpt lat="43.93576" lon="6.41964">
        <ele>990</ele>
        <time>2022-06-09T17:38:04Z</time>
      </trkpt>
      <trkpt lat="43.93587" lon="6.4195">
        <ele>996</ele>
        <time>2022-06-09T17:38:07Z</time>
      </trkpt>
      <trkpt lat="43.93605" lon="6.41938">
        <ele>1001</ele>
        <time>2022-06-09T17:38:12Z</time>
      </trkpt>
      <trkpt lat="43.93623" lon="6.4193">
        <ele>1003</ele>
        <time>2022-06-09T17:38:16Z</time>
      </trkpt>
      <trkpt lat="43.93638" lon="6.41927">
        <ele>1004</ele>
        <time>2022-06-09T17:38:20Z</time>
      </trkpt>
      <trkpt lat="43.93656" lon="6.4194">
        <ele>1000</ele>
        <time>2022-06-09T17:38:25Z</time>
      </trkpt>
      <trkpt lat="43.9368" lon="6.41981">
        <ele>993</ele>
        <time>2022-06-09T17:38:34Z</time>
      </trkpt>
      <trkpt lat="43.93689" lon="6.42019">
        <ele>987</ele>
        <time>2022-06-09T17:38:40Z</time>
      </trkpt>
      <trkpt lat="43.93703" lon="6.42031">
        <ele>989</ele>
        <time>2022-06-09T17:38:44Z</time>
      </trkpt>
      <trkpt lat="43.93713" lon="6.42048">
        <ele>989</ele>
        <time>2022-06-09T17:38:48Z</time>
      </trkpt>
      <trkpt lat="43.93716" lon="6.42072">
        <ele>986</ele>
        <time>2022-06-09T17:38:52Z</time>
      </trkpt>
      <trkpt lat="43.93716" lon="6.42097">
        <ele>984</ele>
        <time>2022-06-09T17:38:56Z</time>
      </trkpt>
      <trkpt lat="43.93723" lon="6.42109">
        <ele>984</ele>
        <time>2022-06-09T17:38:59Z</time>
      </trkpt>
      <trkpt lat="43.93728" lon="6.42141">
        <ele>982</ele>
        <time>2022-06-09T17:39:04Z</time>
      </trkpt>
      <trkpt lat="43.93722" lon="6.42226">
        <ele>985</ele>
        <time>2022-06-09T17:39:19Z</time>
      </trkpt>
      <trkpt lat="43.93727" lon="6.42252">
        <ele>987</ele>
        <time>2022-06-09T17:39:23Z</time>
      </trkpt>
      <trkpt lat="43.93736" lon="6.42273">
        <ele>991</ele>
        <time>2022-06-09T17:39:27Z</time>
      </trkpt>
      <trkpt lat="43.93747" lon="6.42293">
        <ele>995</ele>
        <time>2022-06-09T17:39:31Z</time>
      </trkpt>
      <trkpt lat="43.93756" lon="6.42303">
        <ele>995</ele>
        <time>2022-06-09T17:39:34Z</time>
      </trkpt>
      <trkpt lat="43.93791" lon="6.42331">
        <ele>994</ele>
        <time>2022-06-09T17:39:44Z</time>
      </trkpt>
      <trkpt lat="43.93837" lon="6.42403">
        <ele>999</ele>
        <time>2022-06-09T17:40:00Z</time>
      </trkpt>
      <trkpt lat="43.9385" lon="6.42431">
        <ele>1000</ele>
        <time>2022-06-09T17:40:05Z</time>
      </trkpt>
      <trkpt lat="43.93874" lon="6.42469">
        <ele>1002</ele>
        <time>2022-06-09T17:40:14Z</time>
      </trkpt>
      <trkpt lat="43.93899" lon="6.42494">
        <ele>1000</ele>
        <time>2022-06-09T17:40:21Z</time>
      </trkpt>
      <trkpt lat="43.93911" lon="6.42521">
        <ele>999</ele>
        <time>2022-06-09T17:40:26Z</time>
      </trkpt>
      <trkpt lat="43.93911" lon="6.42543">
        <ele>1000</ele>
        <time>2022-06-09T17:40:30Z</time>
      </trkpt>
      <trkpt lat="43.93852" lon="6.42644">
        <ele>1020</ele>
        <time>2022-06-09T17:40:52Z</time>
      </trkpt>
      <trkpt lat="43.93818" lon="6.42691">
        <ele>1026</ele>
        <time>2022-06-09T17:41:03Z</time>
      </trkpt>
      <trkpt lat="43.93782" lon="6.4272">
        <ele>1031</ele>
        <time>2022-06-09T17:41:13Z</time>
      </trkpt>
      <trkpt lat="43.93757" lon="6.42752">
        <ele>1033</ele>
        <time>2022-06-09T17:41:21Z</time>
      </trkpt>
      <trkpt lat="43.93756" lon="6.42772">
        <ele>1034</ele>
        <time>2022-06-09T17:41:24Z</time>
      </trkpt>
      <trkpt lat="43.93761" lon="6.4279">
        <ele>1033</ele>
        <time>2022-06-09T17:41:27Z</time>
      </trkpt>
      <trkpt lat="43.93769" lon="6.42818">
        <ele>1031</ele>
        <time>2022-06-09T17:41:32Z</time>
      </trkpt>
      <trkpt lat="43.93787" lon="6.42858">
        <ele>1029</ele>
        <time>2022-06-09T17:41:40Z</time>
      </trkpt>
      <trkpt lat="43.93789" lon="6.42877">
        <ele>1031</ele>
        <time>2022-06-09T17:41:44Z</time>
      </trkpt>
      <trkpt lat="43.93787" lon="6.42895">
        <ele>1035</ele>
        <time>2022-06-09T17:41:47Z</time>
      </trkpt>
      <trkpt lat="43.93789" lon="6.42914">
        <ele>1037</ele>
        <time>2022-06-09T17:41:50Z</time>
      </trkpt>
      <trkpt lat="43.93795" lon="6.42935">
        <ele>1035</ele>
        <time>2022-06-09T17:41:54Z</time>
      </trkpt>
      <trkpt lat="43.93797" lon="6.42976">
        <ele>1035</ele>
        <time>2022-06-09T17:42:01Z</time>
      </trkpt>
      <trkpt lat="43.93783" lon="6.43011">
        <ele>1041</ele>
        <time>2022-06-09T17:42:07Z</time>
      </trkpt>
      <trkpt lat="43.93778" lon="6.4303">
        <ele>1041</ele>
        <time>2022-06-09T17:42:11Z</time>
      </trkpt>
      <trkpt lat="43.93771" lon="6.4308">
        <ele>1040</ele>
        <time>2022-06-09T17:42:19Z</time>
      </trkpt>
      <trkpt lat="43.93753" lon="6.43103">
        <ele>1045</ele>
        <time>2022-06-09T17:42:25Z</time>
      </trkpt>
      <trkpt lat="43.93733" lon="6.43154">
        <ele>1048</ele>
        <time>2022-06-09T17:42:35Z</time>
      </trkpt>
      <trkpt lat="43.93726" lon="6.43209">
        <ele>1053</ele>
        <time>2022-06-09T17:42:44Z</time>
      </trkpt>
      <trkpt lat="43.93729" lon="6.43228">
        <ele>1054</ele>
        <time>2022-06-09T17:42:47Z</time>
      </trkpt>
      <trkpt lat="43.93742" lon="6.43257">
        <ele>1053</ele>
        <time>2022-06-09T17:42:53Z</time>
      </trkpt>
      <trkpt lat="43.93745" lon="6.43273">
        <ele>1056</ele>
        <time>2022-06-09T17:42:56Z</time>
      </trkpt>
      <trkpt lat="43.93756" lon="6.43271">
        <ele>1053</ele>
        <time>2022-06-09T17:42:59Z</time>
      </trkpt>
      <trkpt lat="43.9381" lon="6.43276">
        <ele>1049</ele>
        <time>2022-06-09T17:43:11Z</time>
      </trkpt>
      <trkpt lat="43.93825" lon="6.43282">
        <ele>1049</ele>
        <time>2022-06-09T17:43:15Z</time>
      </trkpt>
      <trkpt lat="43.93834" lon="6.43297">
        <ele>1051</ele>
        <time>2022-06-09T17:43:18Z</time>
      </trkpt>
      <trkpt lat="43.93843" lon="6.43339">
        <ele>1059</ele>
        <time>2022-06-09T17:43:26Z</time>
      </trkpt>
      <trkpt lat="43.9385" lon="6.43354">
        <ele>1062</ele>
        <time>2022-06-09T17:43:29Z</time>
      </trkpt>
      <trkpt lat="43.93856" lon="6.43359">
        <ele>1063</ele>
        <time>2022-06-09T17:43:30Z</time>
      </trkpt>
      <trkpt lat="43.9387" lon="6.43361">
        <ele>1063</ele>
        <time>2022-06-09T17:43:33Z</time>
      </trkpt>
      <trkpt lat="43.93924" lon="6.43349">
        <ele>1058</ele>
        <time>2022-06-09T17:43:46Z</time>
      </trkpt>
      <trkpt lat="43.93973" lon="6.43362">
        <ele>1064</ele>
        <time>2022-06-09T17:43:58Z</time>
      </trkpt>
      <trkpt lat="43.93998" lon="6.43371">
        <ele>1068</ele>
        <time>2022-06-09T17:44:04Z</time>
      </trkpt>
      <trkpt lat="43.94038" lon="6.43373">
        <ele>1070</ele>
        <time>2022-06-09T17:44:13Z</time>
      </trkpt>
      <trkpt lat="43.94055" lon="6.43378">
        <ele>1072</ele>
        <time>2022-06-09T17:44:17Z</time>
      </trkpt>
      <trkpt lat="43.94067" lon="6.43386">
        <ele>1073</ele>
        <time>2022-06-09T17:44:20Z</time>
      </trkpt>
      <trkpt lat="43.94079" lon="6.43405">
        <ele>1075</ele>
        <time>2022-06-09T17:44:25Z</time>
      </trkpt>
      <trkpt lat="43.94078" lon="6.43424">
        <ele>1075</ele>
        <time>2022-06-09T17:44:28Z</time>
      </trkpt>
      <trkpt lat="43.94069" lon="6.43443">
        <ele>1074</ele>
        <time>2022-06-09T17:44:32Z</time>
      </trkpt>
      <trkpt lat="43.94018" lon="6.43529">
        <ele>1076</ele>
        <time>2022-06-09T17:44:50Z</time>
      </trkpt>
      <trkpt lat="43.94015" lon="6.43546">
        <ele>1074</ele>
        <time>2022-06-09T17:44:53Z</time>
      </trkpt>
      <trkpt lat="43.94074" lon="6.43752">
        <ele>1062</ele>
        <time>2022-06-09T17:45:31Z</time>
      </trkpt>
      <trkpt lat="43.9408" lon="6.43762">
        <ele>1062</ele>
        <time>2022-06-09T17:45:33Z</time>
      </trkpt>
      <trkpt lat="43.94098" lon="6.43779">
        <ele>1060</ele>
        <time>2022-06-09T17:45:38Z</time>
      </trkpt>
      <trkpt lat="43.94117" lon="6.43805">
        <ele>1058</ele>
        <time>2022-06-09T17:45:44Z</time>
      </trkpt>
      <trkpt lat="43.94138" lon="6.4388">
        <ele>1062</ele>
        <time>2022-06-09T17:45:58Z</time>
      </trkpt>
      <trkpt lat="43.94149" lon="6.43905">
        <ele>1063</ele>
        <time>2022-06-09T17:46:03Z</time>
      </trkpt>
      <trkpt lat="43.94181" lon="6.43949">
        <ele>1064</ele>
        <time>2022-06-09T17:46:13Z</time>
      </trkpt>
      <trkpt lat="43.94212" lon="6.43977">
        <ele>1064</ele>
        <time>2022-06-09T17:46:22Z</time>
      </trkpt>
      <trkpt lat="43.94242" lon="6.43995">
        <ele>1062</ele>
        <time>2022-06-09T17:46:29Z</time>
      </trkpt>
      <trkpt lat="43.94247" lon="6.43996">
        <ele>1062</ele>
        <time>2022-06-09T17:46:31Z</time>
      </trkpt>
      <trkpt lat="43.94277" lon="6.43988">
        <ele>1059</ele>
        <time>2022-06-09T17:46:38Z</time>
      </trkpt>
      <trkpt lat="43.94322" lon="6.43991">
        <ele>1056</ele>
        <time>2022-06-09T17:46:48Z</time>
      </trkpt>
      <trkpt lat="43.94341" lon="6.43989">
        <ele>1055</ele>
        <time>2022-06-09T17:46:53Z</time>
      </trkpt>
      <trkpt lat="43.94358" lon="6.43983">
        <ele>1053</ele>
        <time>2022-06-09T17:46:57Z</time>
      </trkpt>
      <trkpt lat="43.94358" lon="6.43981">
        <ele>1053</ele>
        <time>2022-06-09T17:46:57Z</time>
      </trkpt>
      <trkpt lat="43.94355" lon="6.43985">
        <ele>1053</ele>
        <time>2022-06-09T17:46:58Z</time>
      </trkpt>
      <trkpt lat="43.94358" lon="6.43989">
        <ele>1054</ele>
        <time>2022-06-09T17:46:59Z</time>
      </trkpt>
      <trkpt lat="43.94354" lon="6.44001">
        <ele>1056</ele>
        <time>2022-06-09T17:47:01Z</time>
      </trkpt>
      <trkpt lat="43.94341" lon="6.44007">
        <ele>1058</ele>
        <time>2022-06-09T17:47:04Z</time>
      </trkpt>
      <trkpt lat="43.94294" lon="6.44011">
        <ele>1062</ele>
        <time>2022-06-09T17:47:15Z</time>
      </trkpt>
      <trkpt lat="43.94257" lon="6.44019">
        <ele>1067</ele>
        <time>2022-06-09T17:47:24Z</time>
      </trkpt>
      <trkpt lat="43.94217" lon="6.44041">
        <ele>1077</ele>
        <time>2022-06-09T17:47:34Z</time>
      </trkpt>
      <trkpt lat="43.94204" lon="6.44033">
        <ele>1076</ele>
        <time>2022-06-09T17:47:38Z</time>
      </trkpt>
      <trkpt lat="43.94179" lon="6.4401">
        <ele>1074</ele>
        <time>2022-06-09T17:47:45Z</time>
      </trkpt>
      <trkpt lat="43.94147" lon="6.44002">
        <ele>1078</ele>
        <time>2022-06-09T17:47:52Z</time>
      </trkpt>
      <trkpt lat="43.94118" lon="6.43975">
        <ele>1079</ele>
        <time>2022-06-09T17:48:00Z</time>
      </trkpt>
      <trkpt lat="43.94104" lon="6.4397">
        <ele>1081</ele>
        <time>2022-06-09T17:48:04Z</time>
      </trkpt>
      <trkpt lat="43.94081" lon="6.43969">
        <ele>1085</ele>
        <time>2022-06-09T17:48:09Z</time>
      </trkpt>
      <trkpt lat="43.94075" lon="6.43966">
        <ele>1086</ele>
        <time>2022-06-09T17:48:11Z</time>
      </trkpt>
      <trkpt lat="43.94056" lon="6.43926">
        <ele>1084</ele>
        <time>2022-06-09T17:48:19Z</time>
      </trkpt>
      <trkpt lat="43.94025" lon="6.43893">
        <ele>1087</ele>
        <time>2022-06-09T17:48:28Z</time>
      </trkpt>
      <trkpt lat="43.94015" lon="6.43888">
        <ele>1089</ele>
        <time>2022-06-09T17:48:30Z</time>
      </trkpt>
      <trkpt lat="43.94001" lon="6.4389">
        <ele>1093</ele>
        <time>2022-06-09T17:48:34Z</time>
      </trkpt>
      <trkpt lat="43.93988" lon="6.43887">
        <ele>1095</ele>
        <time>2022-06-09T17:48:37Z</time>
      </trkpt>
      <trkpt lat="43.93982" lon="6.4387">
        <ele>1094</ele>
        <time>2022-06-09T17:48:40Z</time>
      </trkpt>
      <trkpt lat="43.93984" lon="6.43853">
        <ele>1092</ele>
        <time>2022-06-09T17:48:43Z</time>
      </trkpt>
      <trkpt lat="43.93973" lon="6.43817">
        <ele>1089</ele>
        <time>2022-06-09T17:48:49Z</time>
      </trkpt>
      <trkpt lat="43.93964" lon="6.43802">
        <ele>1089</ele>
        <time>2022-06-09T17:48:53Z</time>
      </trkpt>
      <trkpt lat="43.9395" lon="6.4379">
        <ele>1090</ele>
        <time>2022-06-09T17:48:56Z</time>
      </trkpt>
      <trkpt lat="43.93934" lon="6.43789">
        <ele>1093</ele>
        <time>2022-06-09T17:49:00Z</time>
      </trkpt>
      <trkpt lat="43.93911" lon="6.438">
        <ele>1098</ele>
        <time>2022-06-09T17:49:06Z</time>
      </trkpt>
      <trkpt lat="43.93881" lon="6.43809">
        <ele>1100</ele>
        <time>2022-06-09T17:49:13Z</time>
      </trkpt>
      <trkpt lat="43.93881" lon="6.43815">
        <ele>1101</ele>
        <time>2022-06-09T17:49:14Z</time>
      </trkpt>
      <trkpt lat="43.939" lon="6.43831">
        <ele>1103</ele>
        <time>2022-06-09T17:49:19Z</time>
      </trkpt>
      <trkpt lat="43.93909" lon="6.43852">
        <ele>1106</ele>
        <time>2022-06-09T17:49:23Z</time>
      </trkpt>
      <trkpt lat="43.93911" lon="6.43873">
        <ele>1109</ele>
        <time>2022-06-09T17:49:27Z</time>
      </trkpt>
      <trkpt lat="43.93907" lon="6.43914">
        <ele>1115</ele>
        <time>2022-06-09T17:49:34Z</time>
      </trkpt>
      <trkpt lat="43.93904" lon="6.43927">
        <ele>1117</ele>
        <time>2022-06-09T17:49:36Z</time>
      </trkpt>
      <trkpt lat="43.93896" lon="6.43945">
        <ele>1120</ele>
        <time>2022-06-09T17:49:40Z</time>
      </trkpt>
      <trkpt lat="43.93891" lon="6.43967">
        <ele>1124</ele>
        <time>2022-06-09T17:49:44Z</time>
      </trkpt>
      <trkpt lat="43.93894" lon="6.43983">
        <ele>1126</ele>
        <time>2022-06-09T17:49:46Z</time>
      </trkpt>
      <trkpt lat="43.93908" lon="6.44004">
        <ele>1126</ele>
        <time>2022-06-09T17:49:51Z</time>
      </trkpt>
      <trkpt lat="43.93938" lon="6.44026">
        <ele>1125</ele>
        <time>2022-06-09T17:49:59Z</time>
      </trkpt>
      <trkpt lat="43.93961" lon="6.44063">
        <ele>1127</ele>
        <time>2022-06-09T17:50:07Z</time>
      </trkpt>
      <trkpt lat="43.93968" lon="6.4411">
        <ele>1135</ele>
        <time>2022-06-09T17:50:15Z</time>
      </trkpt>
      <trkpt lat="43.93991" lon="6.44168">
        <ele>1142</ele>
        <time>2022-06-09T17:50:26Z</time>
      </trkpt>
      <trkpt lat="43.94015" lon="6.44201">
        <ele>1143</ele>
        <time>2022-06-09T17:50:34Z</time>
      </trkpt>
      <trkpt lat="43.94048" lon="6.44232">
        <ele>1141</ele>
        <time>2022-06-09T17:50:44Z</time>
      </trkpt>
      <trkpt lat="43.94057" lon="6.44246">
        <ele>1142</ele>
        <time>2022-06-09T17:50:47Z</time>
      </trkpt>
      <trkpt lat="43.94063" lon="6.44277">
        <ele>1148</ele>
        <time>2022-06-09T17:50:52Z</time>
      </trkpt>
      <trkpt lat="43.94071" lon="6.44291">
        <ele>1150</ele>
        <time>2022-06-09T17:50:55Z</time>
      </trkpt>
      <trkpt lat="43.94111" lon="6.44318">
        <ele>1151</ele>
        <time>2022-06-09T17:51:06Z</time>
      </trkpt>
      <trkpt lat="43.94135" lon="6.44329">
        <ele>1151</ele>
        <time>2022-06-09T17:51:12Z</time>
      </trkpt>
      <trkpt lat="43.94188" lon="6.44346">
        <ele>1152</ele>
        <time>2022-06-09T17:51:24Z</time>
      </trkpt>
      <trkpt lat="43.94221" lon="6.44365">
        <ele>1155</ele>
        <time>2022-06-09T17:51:33Z</time>
      </trkpt>
      <trkpt lat="43.9423" lon="6.44377">
        <ele>1157</ele>
        <time>2022-06-09T17:51:35Z</time>
      </trkpt>
      <trkpt lat="43.9424" lon="6.4441">
        <ele>1164</ele>
        <time>2022-06-09T17:51:42Z</time>
      </trkpt>
      <trkpt lat="43.94239" lon="6.44426">
        <ele>1167</ele>
        <time>2022-06-09T17:51:44Z</time>
      </trkpt>
      <trkpt lat="43.94236" lon="6.44432">
        <ele>1168</ele>
        <time>2022-06-09T17:51:45Z</time>
      </trkpt>
      <trkpt lat="43.94225" lon="6.44437">
        <ele>1170</ele>
        <time>2022-06-09T17:51:48Z</time>
      </trkpt>
      <trkpt lat="43.94222" lon="6.44436">
        <ele>1170</ele>
        <time>2022-06-09T17:51:49Z</time>
      </trkpt>
      <trkpt lat="43.94225" lon="6.44434">
        <ele>1169</ele>
        <time>2022-06-09T17:51:50Z</time>
      </trkpt>
      <trkpt lat="43.942" lon="6.4443">
        <ele>1171</ele>
        <time>2022-06-09T17:51:56Z</time>
      </trkpt>
      <trkpt lat="43.94179" lon="6.44434">
        <ele>1174</ele>
        <time>2022-06-09T17:52:00Z</time>
      </trkpt>
      <trkpt lat="43.94167" lon="6.44433">
        <ele>1175</ele>
        <time>2022-06-09T17:52:03Z</time>
      </trkpt>
      <trkpt lat="43.94132" lon="6.44449">
        <ele>1184</ele>
        <time>2022-06-09T17:52:12Z</time>
      </trkpt>
      <trkpt lat="43.94102" lon="6.44459">
        <ele>1191</ele>
        <time>2022-06-09T17:52:19Z</time>
      </trkpt>
      <trkpt lat="43.94056" lon="6.44454">
        <ele>1198</ele>
        <time>2022-06-09T17:52:30Z</time>
      </trkpt>
      <trkpt lat="43.94021" lon="6.44455">
        <ele>1206</ele>
        <time>2022-06-09T17:52:38Z</time>
      </trkpt>
      <trkpt lat="43.94004" lon="6.44449">
        <ele>1207</ele>
        <time>2022-06-09T17:52:42Z</time>
      </trkpt>
      <trkpt lat="43.93994" lon="6.44442">
        <ele>1208</ele>
        <time>2022-06-09T17:52:45Z</time>
      </trkpt>
      <trkpt lat="43.93996" lon="6.44442">
        <ele>1207</ele>
        <time>2022-06-09T17:52:45Z</time>
      </trkpt>
      <trkpt lat="43.93998" lon="6.44445">
        <ele>1207</ele>
        <time>2022-06-09T17:52:46Z</time>
      </trkpt>
      <trkpt lat="43.9395" lon="6.44422">
        <ele>1214</ele>
        <time>2022-06-09T17:52:58Z</time>
      </trkpt>
      <trkpt lat="43.93906" lon="6.44389">
        <ele>1216</ele>
        <time>2022-06-09T17:53:09Z</time>
      </trkpt>
      <trkpt lat="43.93855" lon="6.44362">
        <ele>1218</ele>
        <time>2022-06-09T17:53:22Z</time>
      </trkpt>
      <trkpt lat="43.93837" lon="6.44359">
        <ele>1221</ele>
        <time>2022-06-09T17:53:26Z</time>
      </trkpt>
      <trkpt lat="43.93802" lon="6.44361">
        <ele>1225</ele>
        <time>2022-06-09T17:53:35Z</time>
      </trkpt>
      <trkpt lat="43.9377" lon="6.44359">
        <ele>1228</ele>
        <time>2022-06-09T17:53:42Z</time>
      </trkpt>
      <trkpt lat="43.93754" lon="6.44361">
        <ele>1230</ele>
        <time>2022-06-09T17:53:46Z</time>
      </trkpt>
      <trkpt lat="43.93754" lon="6.44366">
        <ele>1232</ele>
        <time>2022-06-09T17:53:47Z</time>
      </trkpt>
      <trkpt lat="43.93757" lon="6.44359">
        <ele>1229</ele>
        <time>2022-06-09T17:53:48Z</time>
      </trkpt>
      <trkpt lat="43.93769" lon="6.44362">
        <ele>1229</ele>
        <time>2022-06-09T17:53:51Z</time>
      </trkpt>
      <trkpt lat="43.9376" lon="6.44362">
        <ele>1230</ele>
        <time>2022-06-09T17:53:53Z</time>
      </trkpt>
      <trkpt lat="43.93758" lon="6.44359">
        <ele>1229</ele>
        <time>2022-06-09T17:53:54Z</time>
      </trkpt>
      <trkpt lat="43.93776" lon="6.44363">
        <ele>1228</ele>
        <time>2022-06-09T17:53:58Z</time>
      </trkpt>
      <trkpt lat="43.93768" lon="6.44365">
        <ele>1230</ele>
        <time>2022-06-09T17:54:00Z</time>
      </trkpt>
      <trkpt lat="43.93758" lon="6.44361">
        <ele>1230</ele>
        <time>2022-06-09T17:54:02Z</time>
      </trkpt>
      <trkpt lat="43.93769" lon="6.44378">
        <ele>1234</ele>
        <time>2022-06-09T17:54:06Z</time>
      </trkpt>
      <trkpt lat="43.93797" lon="6.44403">
        <ele>1238</ele>
        <time>2022-06-09T17:54:14Z</time>
      </trkpt>
      <trkpt lat="43.93841" lon="6.44454">
        <ele>1250</ele>
        <time>2022-06-09T17:54:27Z</time>
      </trkpt>
      <trkpt lat="43.9389" lon="6.44498">
        <ele>1255</ele>
        <time>2022-06-09T17:54:41Z</time>
      </trkpt>
      <trkpt lat="43.93882" lon="6.44501">
        <ele>1258</ele>
        <time>2022-06-09T17:54:43Z</time>
      </trkpt>
      <trkpt lat="43.93862" lon="6.44497">
        <ele>1261</ele>
        <time>2022-06-09T17:54:48Z</time>
      </trkpt>
      <trkpt lat="43.9386" lon="6.44499">
        <ele>1263</ele>
        <time>2022-06-09T17:54:48Z</time>
      </trkpt>
      <trkpt lat="43.93866" lon="6.44506">
        <ele>1263</ele>
        <time>2022-06-09T17:54:50Z</time>
      </trkpt>
      <trkpt lat="43.93927" lon="6.44553">
        <ele>1265</ele>
        <time>2022-06-09T17:55:06Z</time>
      </trkpt>
      <trkpt lat="43.93947" lon="6.44578">
        <ele>1269</ele>
        <time>2022-06-09T17:55:13Z</time>
      </trkpt>
      <trkpt lat="43.93931" lon="6.44583">
        <ele>1274</ele>
        <time>2022-06-09T17:55:16Z</time>
      </trkpt>
      <trkpt lat="43.93933" lon="6.44584">
        <ele>1273</ele>
        <time>2022-06-09T17:55:17Z</time>
      </trkpt>
      <trkpt lat="43.93932" lon="6.44586">
        <ele>1274</ele>
        <time>2022-06-09T17:55:17Z</time>
      </trkpt>
      <trkpt lat="43.93909" lon="6.44599">
        <ele>1278</ele>
        <time>2022-06-09T17:55:23Z</time>
      </trkpt>
      <trkpt lat="43.93897" lon="6.44592">
        <ele>1280</ele>
        <time>2022-06-09T17:55:26Z</time>
      </trkpt>
      <trkpt lat="43.93886" lon="6.44589">
        <ele>1281</ele>
        <time>2022-06-09T17:55:29Z</time>
      </trkpt>
      <trkpt lat="43.93876" lon="6.44592">
        <ele>1283</ele>
        <time>2022-06-09T17:55:31Z</time>
      </trkpt>
      <trkpt lat="43.93853" lon="6.44593">
        <ele>1286</ele>
        <time>2022-06-09T17:55:36Z</time>
      </trkpt>
      <trkpt lat="43.93832" lon="6.44599">
        <ele>1289</ele>
        <time>2022-06-09T17:55:41Z</time>
      </trkpt>
      <trkpt lat="43.93819" lon="6.44599">
        <ele>1291</ele>
        <time>2022-06-09T17:55:45Z</time>
      </trkpt>
      <trkpt lat="43.93804" lon="6.44605">
        <ele>1294</ele>
        <time>2022-06-09T17:55:48Z</time>
      </trkpt>
      <trkpt lat="43.9379" lon="6.44606">
        <ele>1297</ele>
        <time>2022-06-09T17:55:51Z</time>
      </trkpt>
      <trkpt lat="43.93771" lon="6.44601">
        <ele>1300</ele>
        <time>2022-06-09T17:55:56Z</time>
      </trkpt>
      <trkpt lat="43.93746" lon="6.44599">
        <ele>1303</ele>
        <time>2022-06-09T17:56:02Z</time>
      </trkpt>
      <trkpt lat="43.93729" lon="6.44602">
        <ele>1304</ele>
        <time>2022-06-09T17:56:06Z</time>
      </trkpt>
      <trkpt lat="43.93711" lon="6.44624">
        <ele>1308</ele>
        <time>2022-06-09T17:56:11Z</time>
      </trkpt>
      <trkpt lat="43.93702" lon="6.44623">
        <ele>1308</ele>
        <time>2022-06-09T17:56:14Z</time>
      </trkpt>
      <trkpt lat="43.93695" lon="6.44635">
        <ele>1311</ele>
        <time>2022-06-09T17:56:16Z</time>
      </trkpt>
      <trkpt lat="43.93693" lon="6.44649">
        <ele>1313</ele>
        <time>2022-06-09T17:56:19Z</time>
      </trkpt>
      <trkpt lat="43.93679" lon="6.4469">
        <ele>1320</ele>
        <time>2022-06-09T17:56:26Z</time>
      </trkpt>
      <trkpt lat="43.93678" lon="6.44699">
        <ele>1322</ele>
        <time>2022-06-09T17:56:28Z</time>
      </trkpt>
      <trkpt lat="43.9368" lon="6.44701">
        <ele>1322</ele>
        <time>2022-06-09T17:56:28Z</time>
      </trkpt>
      <trkpt lat="43.93674" lon="6.44732">
        <ele>1327</ele>
        <time>2022-06-09T17:56:34Z</time>
      </trkpt>
      <trkpt lat="43.93684" lon="6.44755">
        <ele>1328</ele>
        <time>2022-06-09T17:56:38Z</time>
      </trkpt>
      <trkpt lat="43.93707" lon="6.4478">
        <ele>1326</ele>
        <time>2022-06-09T17:56:45Z</time>
      </trkpt>
      <trkpt lat="43.93713" lon="6.44798">
        <ele>1326</ele>
        <time>2022-06-09T17:56:48Z</time>
      </trkpt>
      <trkpt lat="43.93693" lon="6.44861">
        <ele>1333</ele>
        <time>2022-06-09T17:57:00Z</time>
      </trkpt>
      <trkpt lat="43.9369" lon="6.44882">
        <ele>1333</ele>
        <time>2022-06-09T17:57:03Z</time>
      </trkpt>
      <trkpt lat="43.93693" lon="6.44879">
        <ele>1332</ele>
        <time>2022-06-09T17:57:04Z</time>
      </trkpt>
      <trkpt lat="43.93691" lon="6.44882">
        <ele>1333</ele>
        <time>2022-06-09T17:57:05Z</time>
      </trkpt>
      <trkpt lat="43.93695" lon="6.44881">
        <ele>1332</ele>
        <time>2022-06-09T17:57:06Z</time>
      </trkpt>
      <trkpt lat="43.93692" lon="6.44879">
        <ele>1333</ele>
        <time>2022-06-09T17:57:07Z</time>
      </trkpt>
      <trkpt lat="43.93682" lon="6.44912">
        <ele>1333</ele>
        <time>2022-06-09T17:57:13Z</time>
      </trkpt>
      <trkpt lat="43.93686" lon="6.44932">
        <ele>1333</ele>
        <time>2022-06-09T17:57:16Z</time>
      </trkpt>
      <trkpt lat="43.93682" lon="6.44937">
        <ele>1333</ele>
        <time>2022-06-09T17:57:18Z</time>
      </trkpt>
      <trkpt lat="43.93678" lon="6.4495">
        <ele>1334</ele>
        <time>2022-06-09T17:57:20Z</time>
      </trkpt>
      <trkpt lat="43.93682" lon="6.44993">
        <ele>1334</ele>
        <time>2022-06-09T17:57:27Z</time>
      </trkpt>
      <trkpt lat="43.93673" lon="6.45005">
        <ele>1335</ele>
        <time>2022-06-09T17:57:30Z</time>
      </trkpt>
      <trkpt lat="43.93672" lon="6.45041">
        <ele>1335</ele>
        <time>2022-06-09T17:57:36Z</time>
      </trkpt>
      <trkpt lat="43.93676" lon="6.45065">
        <ele>1334</ele>
        <time>2022-06-09T17:57:40Z</time>
      </trkpt>
      <trkpt lat="43.93671" lon="6.45093">
        <ele>1334</ele>
        <time>2022-06-09T17:57:45Z</time>
      </trkpt>
      <trkpt lat="43.93674" lon="6.45118">
        <ele>1333</ele>
        <time>2022-06-09T17:57:49Z</time>
      </trkpt>
      <trkpt lat="43.93681" lon="6.45131">
        <ele>1334</ele>
        <time>2022-06-09T17:57:52Z</time>
      </trkpt>
      <trkpt lat="43.93684" lon="6.45149">
        <ele>1334</ele>
        <time>2022-06-09T17:57:55Z</time>
      </trkpt>
      <trkpt lat="43.93696" lon="6.45189">
        <ele>1338</ele>
        <time>2022-06-09T17:58:03Z</time>
      </trkpt>
      <trkpt lat="43.93696" lon="6.45234">
        <ele>1342</ele>
        <time>2022-06-09T17:58:10Z</time>
      </trkpt>
      <trkpt lat="43.937" lon="6.45255">
        <ele>1346</ele>
        <time>2022-06-09T17:58:14Z</time>
      </trkpt>
      <trkpt lat="43.93694" lon="6.45301">
        <ele>1349</ele>
        <time>2022-06-09T17:58:22Z</time>
      </trkpt>
      <trkpt lat="43.93685" lon="6.45333">
        <ele>1348</ele>
        <time>2022-06-09T17:58:27Z</time>
      </trkpt>
      <trkpt lat="43.93685" lon="6.45349">
        <ele>1349</ele>
        <time>2022-06-09T17:58:30Z</time>
      </trkpt>
      <trkpt lat="43.93694" lon="6.45378">
        <ele>1353</ele>
        <time>2022-06-09T17:58:35Z</time>
      </trkpt>
      <trkpt lat="43.93704" lon="6.454">
        <ele>1358</ele>
        <time>2022-06-09T17:58:40Z</time>
      </trkpt>
      <trkpt lat="43.93713" lon="6.45435">
        <ele>1362</ele>
        <time>2022-06-09T17:58:46Z</time>
      </trkpt>
      <trkpt lat="43.9372" lon="6.45474">
        <ele>1364</ele>
        <time>2022-06-09T17:58:53Z</time>
      </trkpt>
      <trkpt lat="43.93721" lon="6.45506">
        <ele>1363</ele>
        <time>2022-06-09T17:58:58Z</time>
      </trkpt>
      <trkpt lat="43.93727" lon="6.45558">
        <ele>1365</ele>
        <time>2022-06-09T17:59:07Z</time>
      </trkpt>
      <trkpt lat="43.93732" lon="6.45571">
        <ele>1367</ele>
        <time>2022-06-09T17:59:10Z</time>
      </trkpt>
      <trkpt lat="43.93734" lon="6.45571">
        <ele>1367</ele>
        <time>2022-06-09T17:59:10Z</time>
      </trkpt>
      <trkpt lat="43.93727" lon="6.4559">
        <ele>1364</ele>
        <time>2022-06-09T17:59:14Z</time>
      </trkpt>
      <trkpt lat="43.93719" lon="6.45636">
        <ele>1360</ele>
        <time>2022-06-09T17:59:22Z</time>
      </trkpt>
      <trkpt lat="43.93715" lon="6.45646">
        <ele>1359</ele>
        <time>2022-06-09T17:59:23Z</time>
      </trkpt>
      <trkpt lat="43.93711" lon="6.45703">
        <ele>1354</ele>
        <time>2022-06-09T17:59:33Z</time>
      </trkpt>
      <trkpt lat="43.93699" lon="6.45726">
        <ele>1350</ele>
        <time>2022-06-09T17:59:38Z</time>
      </trkpt>
      <trkpt lat="43.93696" lon="6.45737">
        <ele>1349</ele>
        <time>2022-06-09T17:59:40Z</time>
      </trkpt>
      <trkpt lat="43.93696" lon="6.4583">
        <ele>1341</ele>
        <time>2022-06-09T17:59:55Z</time>
      </trkpt>
      <trkpt lat="43.93694" lon="6.45855">
        <ele>1339</ele>
        <time>2022-06-09T18:00:00Z</time>
      </trkpt>
      <trkpt lat="43.93687" lon="6.45883">
        <ele>1336</ele>
        <time>2022-06-09T18:00:05Z</time>
      </trkpt>
      <trkpt lat="43.93688" lon="6.45934">
        <ele>1331</ele>
        <time>2022-06-09T18:00:13Z</time>
      </trkpt>
      <trkpt lat="43.93695" lon="6.4598">
        <ele>1323</ele>
        <time>2022-06-09T18:00:21Z</time>
      </trkpt>
      <trkpt lat="43.93704" lon="6.46004">
        <ele>1319</ele>
        <time>2022-06-09T18:00:26Z</time>
      </trkpt>
      <trkpt lat="43.93735" lon="6.46145">
        <ele>1303</ele>
        <time>2022-06-09T18:00:51Z</time>
      </trkpt>
      <trkpt lat="43.93755" lon="6.46213">
        <ele>1293</ele>
        <time>2022-06-09T18:01:03Z</time>
      </trkpt>
      <trkpt lat="43.93758" lon="6.46232">
        <ele>1289</ele>
        <time>2022-06-09T18:01:06Z</time>
      </trkpt>
      <trkpt lat="43.93767" lon="6.4626">
        <ele>1282</ele>
        <time>2022-06-09T18:01:11Z</time>
      </trkpt>
      <trkpt lat="43.93787" lon="6.46346">
        <ele>1267</ele>
        <time>2022-06-09T18:01:27Z</time>
      </trkpt>
      <trkpt lat="43.93834" lon="6.46449">
        <ele>1257</ele>
        <time>2022-06-09T18:01:47Z</time>
      </trkpt>
      <trkpt lat="43.9384" lon="6.46482">
        <ele>1254</ele>
        <time>2022-06-09T18:01:53Z</time>
      </trkpt>
      <trkpt lat="43.93835" lon="6.46483">
        <ele>1255</ele>
        <time>2022-06-09T18:01:54Z</time>
      </trkpt>
      <trkpt lat="43.93834" lon="6.4648">
        <ele>1255</ele>
        <time>2022-06-09T18:01:54Z</time>
      </trkpt>
      <trkpt lat="43.93833" lon="6.46482">
        <ele>1255</ele>
        <time>2022-06-09T18:01:55Z</time>
      </trkpt>
      <trkpt lat="43.93831" lon="6.4648">
        <ele>1255</ele>
        <time>2022-06-09T18:01:55Z</time>
      </trkpt>
      <trkpt lat="43.93834" lon="6.46476">
        <ele>1255</ele>
        <time>2022-06-09T18:01:56Z</time>
      </trkpt>
      <trkpt lat="43.93834" lon="6.4648">
        <ele>1255</ele>
        <time>2022-06-09T18:01:57Z</time>
      </trkpt>
      <trkpt lat="43.93837" lon="6.46482">
        <ele>1255</ele>
        <time>2022-06-09T18:01:58Z</time>
      </trkpt>
      <trkpt lat="43.93833" lon="6.46481">
        <ele>1255</ele>
        <time>2022-06-09T18:01:59Z</time>
      </trkpt>
      <trkpt lat="43.93835" lon="6.46483">
        <ele>1255</ele>
        <time>2022-06-09T18:01:59Z</time>
      </trkpt>
      <trkpt lat="43.93836" lon="6.4648">
        <ele>1255</ele>
        <time>2022-06-09T18:02:00Z</time>
      </trkpt>
      <trkpt lat="43.93834" lon="6.46482">
        <ele>1255</ele>
        <time>2022-06-09T18:02:01Z</time>
      </trkpt>
      <trkpt lat="43.93833" lon="6.46477">
        <ele>1255</ele>
        <time>2022-06-09T18:02:01Z</time>
      </trkpt>
      <trkpt lat="43.93838" lon="6.46447">
        <ele>1257</ele>
        <time>2022-06-09T18:02:07Z</time>
      </trkpt>
      <trkpt lat="43.93837" lon="6.46418">
        <ele>1258</ele>
        <time>2022-06-09T18:02:11Z</time>
      </trkpt>
      <trkpt lat="43.93838" lon="6.46404">
        <ele>1260</ele>
        <time>2022-06-09T18:02:14Z</time>
      </trkpt>
      <trkpt lat="43.93844" lon="6.46383">
        <ele>1261</ele>
        <time>2022-06-09T18:02:18Z</time>
      </trkpt>
      <trkpt lat="43.93871" lon="6.46347">
        <ele>1259</ele>
        <time>2022-06-09T18:02:26Z</time>
      </trkpt>
      <trkpt lat="43.93899" lon="6.46316">
        <ele>1255</ele>
        <time>2022-06-09T18:02:35Z</time>
      </trkpt>
      <trkpt lat="43.93907" lon="6.46296">
        <ele>1255</ele>
        <time>2022-06-09T18:02:39Z</time>
      </trkpt>
      <trkpt lat="43.9393" lon="6.46262">
        <ele>1251</ele>
        <time>2022-06-09T18:02:46Z</time>
      </trkpt>
      <trkpt lat="43.93949" lon="6.46262">
        <ele>1246</ele>
        <time>2022-06-09T18:02:51Z</time>
      </trkpt>
      <trkpt lat="43.93965" lon="6.46252">
        <ele>1242</ele>
        <time>2022-06-09T18:02:55Z</time>
      </trkpt>
      <trkpt lat="43.93972" lon="6.46235">
        <ele>1243</ele>
        <time>2022-06-09T18:02:58Z</time>
      </trkpt>
      <trkpt lat="43.93969" lon="6.46233">
        <ele>1244</ele>
        <time>2022-06-09T18:02:59Z</time>
      </trkpt>
      <trkpt lat="43.93961" lon="6.46253">
        <ele>1243</ele>
        <time>2022-06-09T18:03:03Z</time>
      </trkpt>
      <trkpt lat="43.93975" lon="6.46255">
        <ele>1239</ele>
        <time>2022-06-09T18:03:06Z</time>
      </trkpt>
      <trkpt lat="43.93996" lon="6.4623">
        <ele>1237</ele>
        <time>2022-06-09T18:03:13Z</time>
      </trkpt>
      <trkpt lat="43.94025" lon="6.46211">
        <ele>1233</ele>
        <time>2022-06-09T18:03:20Z</time>
      </trkpt>
      <trkpt lat="43.94051" lon="6.4622">
        <ele>1226</ele>
        <time>2022-06-09T18:03:26Z</time>
      </trkpt>
      <trkpt lat="43.94074" lon="6.4622">
        <ele>1220</ele>
        <time>2022-06-09T18:03:32Z</time>
      </trkpt>
      <trkpt lat="43.94092" lon="6.46211">
        <ele>1220</ele>
        <time>2022-06-09T18:03:36Z</time>
      </trkpt>
      <trkpt lat="43.94098" lon="6.46194">
        <ele>1222</ele>
        <time>2022-06-09T18:03:39Z</time>
      </trkpt>
      <trkpt lat="43.94101" lon="6.46193">
        <ele>1222</ele>
        <time>2022-06-09T18:03:40Z</time>
      </trkpt>
      <trkpt lat="43.94117" lon="6.46203">
        <ele>1220</ele>
        <time>2022-06-09T18:03:44Z</time>
      </trkpt>
      <trkpt lat="43.94126" lon="6.46196">
        <ele>1221</ele>
        <time>2022-06-09T18:03:47Z</time>
      </trkpt>
      <trkpt lat="43.94129" lon="6.46189">
        <ele>1222</ele>
        <time>2022-06-09T18:03:48Z</time>
      </trkpt>
      <trkpt lat="43.94135" lon="6.4619">
        <ele>1222</ele>
        <time>2022-06-09T18:03:49Z</time>
      </trkpt>
      <trkpt lat="43.94141" lon="6.46207">
        <ele>1220</ele>
        <time>2022-06-09T18:03:53Z</time>
      </trkpt>
      <trkpt lat="43.94156" lon="6.46227">
        <ele>1216</ele>
        <time>2022-06-09T18:03:57Z</time>
      </trkpt>
      <trkpt lat="43.94176" lon="6.46265">
        <ele>1209</ele>
        <time>2022-06-09T18:04:05Z</time>
      </trkpt>
      <trkpt lat="43.94184" lon="6.46274">
        <ele>1208</ele>
        <time>2022-06-09T18:04:08Z</time>
      </trkpt>
      <trkpt lat="43.94188" lon="6.46291">
        <ele>1204</ele>
        <time>2022-06-09T18:04:11Z</time>
      </trkpt>
      <trkpt lat="43.94199" lon="6.46307">
        <ele>1201</ele>
        <time>2022-06-09T18:04:14Z</time>
      </trkpt>
      <trkpt lat="43.94205" lon="6.46322">
        <ele>1199</ele>
        <time>2022-06-09T18:04:17Z</time>
      </trkpt>
      <trkpt lat="43.94235" lon="6.46369">
        <ele>1190</ele>
        <time>2022-06-09T18:04:28Z</time>
      </trkpt>
      <trkpt lat="43.94255" lon="6.46381">
        <ele>1188</ele>
        <time>2022-06-09T18:04:33Z</time>
      </trkpt>
      <trkpt lat="43.94255" lon="6.46397">
        <ele>1185</ele>
        <time>2022-06-09T18:04:36Z</time>
      </trkpt>
      <trkpt lat="43.94268" lon="6.46432">
        <ele>1180</ele>
        <time>2022-06-09T18:04:42Z</time>
      </trkpt>
      <trkpt lat="43.94308" lon="6.4649">
        <ele>1176</ele>
        <time>2022-06-09T18:04:56Z</time>
      </trkpt>
      <trkpt lat="43.94321" lon="6.46515">
        <ele>1173</ele>
        <time>2022-06-09T18:05:01Z</time>
      </trkpt>
      <trkpt lat="43.94324" lon="6.46532">
        <ele>1170</ele>
        <time>2022-06-09T18:05:04Z</time>
      </trkpt>
      <trkpt lat="43.94342" lon="6.46548">
        <ele>1168</ele>
        <time>2022-06-09T18:05:09Z</time>
      </trkpt>
      <trkpt lat="43.94345" lon="6.46557">
        <ele>1166</ele>
        <time>2022-06-09T18:05:11Z</time>
      </trkpt>
      <trkpt lat="43.94347" lon="6.46579">
        <ele>1162</ele>
        <time>2022-06-09T18:05:14Z</time>
      </trkpt>
      <trkpt lat="43.94359" lon="6.46605">
        <ele>1157</ele>
        <time>2022-06-09T18:05:20Z</time>
      </trkpt>
      <trkpt lat="43.94361" lon="6.46633">
        <ele>1151</ele>
        <time>2022-06-09T18:05:24Z</time>
      </trkpt>
      <trkpt lat="43.94364" lon="6.46643">
        <ele>1149</ele>
        <time>2022-06-09T18:05:26Z</time>
      </trkpt>
      <trkpt lat="43.94373" lon="6.4666">
        <ele>1146</ele>
        <time>2022-06-09T18:05:30Z</time>
      </trkpt>
      <trkpt lat="43.94378" lon="6.46661">
        <ele>1146</ele>
        <time>2022-06-09T18:05:31Z</time>
      </trkpt>
      <trkpt lat="43.9439" lon="6.4667">
        <ele>1143</ele>
        <time>2022-06-09T18:05:34Z</time>
      </trkpt>
      <trkpt lat="43.94393" lon="6.46676">
        <ele>1141</ele>
        <time>2022-06-09T18:05:35Z</time>
      </trkpt>
      <trkpt lat="43.94382" lon="6.46686">
        <ele>1139</ele>
        <time>2022-06-09T18:05:38Z</time>
      </trkpt>
      <trkpt lat="43.94394" lon="6.46674">
        <ele>1142</ele>
        <time>2022-06-09T18:05:42Z</time>
      </trkpt>
      <trkpt lat="43.94402" lon="6.46648">
        <ele>1147</ele>
        <time>2022-06-09T18:05:47Z</time>
      </trkpt>
      <trkpt lat="43.94405" lon="6.46667">
        <ele>1143</ele>
        <time>2022-06-09T18:05:50Z</time>
      </trkpt>
      <trkpt lat="43.9443" lon="6.46713">
        <ele>1132</ele>
        <time>2022-06-09T18:05:59Z</time>
      </trkpt>
      <trkpt lat="43.94426" lon="6.46725">
        <ele>1128</ele>
        <time>2022-06-09T18:06:02Z</time>
      </trkpt>
      <trkpt lat="43.94405" lon="6.46725">
        <ele>1128</ele>
        <time>2022-06-09T18:06:07Z</time>
      </trkpt>
      <trkpt lat="43.94404" lon="6.46735">
        <ele>1125</ele>
        <time>2022-06-09T18:06:08Z</time>
      </trkpt>
      <trkpt lat="43.94411" lon="6.46741">
        <ele>1123</ele>
        <time>2022-06-09T18:06:10Z</time>
      </trkpt>
      <trkpt lat="43.94418" lon="6.46755">
        <ele>1119</ele>
        <time>2022-06-09T18:06:13Z</time>
      </trkpt>
      <trkpt lat="43.94442" lon="6.4676">
        <ele>1120</ele>
        <time>2022-06-09T18:06:19Z</time>
      </trkpt>
      <trkpt lat="43.94502" lon="6.46785">
        <ele>1120</ele>
        <time>2022-06-09T18:06:33Z</time>
      </trkpt>
      <trkpt lat="43.94514" lon="6.46797">
        <ele>1119</ele>
        <time>2022-06-09T18:06:37Z</time>
      </trkpt>
      <trkpt lat="43.94538" lon="6.46834">
        <ele>1114</ele>
        <time>2022-06-09T18:06:45Z</time>
      </trkpt>
      <trkpt lat="43.94552" lon="6.46867">
        <ele>1111</ele>
        <time>2022-06-09T18:06:52Z</time>
      </trkpt>
      <trkpt lat="43.94553" lon="6.46886">
        <ele>1108</ele>
        <time>2022-06-09T18:06:55Z</time>
      </trkpt>
      <trkpt lat="43.9455" lon="6.46903">
        <ele>1104</ele>
        <time>2022-06-09T18:06:58Z</time>
      </trkpt>
      <trkpt lat="43.94527" lon="6.46956">
        <ele>1093</ele>
        <time>2022-06-09T18:07:08Z</time>
      </trkpt>
      <trkpt lat="43.94521" lon="6.46978">
        <ele>1089</ele>
        <time>2022-06-09T18:07:12Z</time>
      </trkpt>
      <trkpt lat="43.94523" lon="6.47006">
        <ele>1086</ele>
        <time>2022-06-09T18:07:17Z</time>
      </trkpt>
      <trkpt lat="43.94542" lon="6.47062">
        <ele>1081</ele>
        <time>2022-06-09T18:07:27Z</time>
      </trkpt>
      <trkpt lat="43.94536" lon="6.47086">
        <ele>1076</ele>
        <time>2022-06-09T18:07:32Z</time>
      </trkpt>
      <trkpt lat="43.94541" lon="6.47104">
        <ele>1074</ele>
        <time>2022-06-09T18:07:35Z</time>
      </trkpt>
      <trkpt lat="43.94542" lon="6.47122">
        <ele>1071</ele>
        <time>2022-06-09T18:07:38Z</time>
      </trkpt>
      <trkpt lat="43.94529" lon="6.47156">
        <ele>1066</ele>
        <time>2022-06-09T18:07:44Z</time>
      </trkpt>
      <trkpt lat="43.94526" lon="6.47171">
        <ele>1064</ele>
        <time>2022-06-09T18:07:47Z</time>
      </trkpt>
      <trkpt lat="43.94525" lon="6.47245">
        <ele>1055</ele>
        <time>2022-06-09T18:07:59Z</time>
      </trkpt>
      <trkpt lat="43.94522" lon="6.47246">
        <ele>1055</ele>
        <time>2022-06-09T18:08:00Z</time>
      </trkpt>
      <trkpt lat="43.94516" lon="6.47243">
        <ele>1056</ele>
        <time>2022-06-09T18:08:02Z</time>
      </trkpt>
      <trkpt lat="43.94466" lon="6.4717">
        <ele>1054</ele>
        <time>2022-06-09T18:08:19Z</time>
      </trkpt>
      <trkpt lat="43.94458" lon="6.47152">
        <ele>1054</ele>
        <time>2022-06-09T18:08:22Z</time>
      </trkpt>
      <trkpt lat="43.94453" lon="6.47125">
        <ele>1056</ele>
        <time>2022-06-09T18:08:27Z</time>
      </trkpt>
      <trkpt lat="43.94445" lon="6.47099">
        <ele>1057</ele>
        <time>2022-06-09T18:08:32Z</time>
      </trkpt>
      <trkpt lat="43.94432" lon="6.47076">
        <ele>1056</ele>
        <time>2022-06-09T18:08:36Z</time>
      </trkpt>
      <trkpt lat="43.94417" lon="6.47059">
        <ele>1055</ele>
        <time>2022-06-09T18:08:41Z</time>
      </trkpt>
      <trkpt lat="43.94402" lon="6.47059">
        <ele>1055</ele>
        <time>2022-06-09T18:08:44Z</time>
      </trkpt>
      <trkpt lat="43.94386" lon="6.47065">
        <ele>1054</ele>
        <time>2022-06-09T18:08:48Z</time>
      </trkpt>
      <trkpt lat="43.94371" lon="6.4706">
        <ele>1054</ele>
        <time>2022-06-09T18:08:52Z</time>
      </trkpt>
      <trkpt lat="43.94348" lon="6.4706">
        <ele>1054</ele>
        <time>2022-06-09T18:08:57Z</time>
      </trkpt>
      <trkpt lat="43.9434" lon="6.47062">
        <ele>1054</ele>
        <time>2022-06-09T18:08:59Z</time>
      </trkpt>
      <trkpt lat="43.94336" lon="6.47071">
        <ele>1052</ele>
        <time>2022-06-09T18:09:01Z</time>
      </trkpt>
      <trkpt lat="43.94335" lon="6.47084">
        <ele>1051</ele>
        <time>2022-06-09T18:09:03Z</time>
      </trkpt>
      <trkpt lat="43.94337" lon="6.47097">
        <ele>1050</ele>
        <time>2022-06-09T18:09:05Z</time>
      </trkpt>
      <trkpt lat="43.94347" lon="6.47107">
        <ele>1049</ele>
        <time>2022-06-09T18:09:08Z</time>
      </trkpt>
      <trkpt lat="43.9435" lon="6.47119">
        <ele>1048</ele>
        <time>2022-06-09T18:09:10Z</time>
      </trkpt>
      <trkpt lat="43.94342" lon="6.47141">
        <ele>1047</ele>
        <time>2022-06-09T18:09:15Z</time>
      </trkpt>
      <trkpt lat="43.94313" lon="6.47159">
        <ele>1049</ele>
        <time>2022-06-09T18:09:22Z</time>
      </trkpt>
      <trkpt lat="43.94289" lon="6.47188">
        <ele>1052</ele>
        <time>2022-06-09T18:09:29Z</time>
      </trkpt>
      <trkpt lat="43.94287" lon="6.47197">
        <ele>1053</ele>
        <time>2022-06-09T18:09:31Z</time>
      </trkpt>
      <trkpt lat="43.94294" lon="6.47252">
        <ele>1052</ele>
        <time>2022-06-09T18:09:40Z</time>
      </trkpt>
      <trkpt lat="43.94292" lon="6.47276">
        <ele>1053</ele>
        <time>2022-06-09T18:09:44Z</time>
      </trkpt>
      <trkpt lat="43.94318" lon="6.47391">
        <ele>1049</ele>
        <time>2022-06-09T18:10:05Z</time>
      </trkpt>
      <trkpt lat="43.9432" lon="6.47413">
        <ele>1049</ele>
        <time>2022-06-09T18:10:08Z</time>
      </trkpt>
      <trkpt lat="43.94329" lon="6.47458">
        <ele>1047</ele>
        <time>2022-06-09T18:10:16Z</time>
      </trkpt>
      <trkpt lat="43.94351" lon="6.47513">
        <ele>1040</ele>
        <time>2022-06-09T18:10:27Z</time>
      </trkpt>
      <trkpt lat="43.9437" lon="6.47552">
        <ele>1033</ele>
        <time>2022-06-09T18:10:35Z</time>
      </trkpt>
      <trkpt lat="43.94382" lon="6.47621">
        <ele>1028</ele>
        <time>2022-06-09T18:10:47Z</time>
      </trkpt>
      <trkpt lat="43.9439" lon="6.47639">
        <ele>1026</ele>
        <time>2022-06-09T18:10:50Z</time>
      </trkpt>
      <trkpt lat="43.94407" lon="6.47662">
        <ele>1021</ele>
        <time>2022-06-09T18:10:56Z</time>
      </trkpt>
      <trkpt lat="43.94457" lon="6.47746">
        <ele>1012</ele>
        <time>2022-06-09T18:11:14Z</time>
      </trkpt>
      <trkpt lat="43.94465" lon="6.47762">
        <ele>1011</ele>
        <time>2022-06-09T18:11:17Z</time>
      </trkpt>
      <trkpt lat="43.94476" lon="6.47797">
        <ele>1012</ele>
        <time>2022-06-09T18:11:24Z</time>
      </trkpt>
      <trkpt lat="43.94498" lon="6.4785">
        <ele>1013</ele>
        <time>2022-06-09T18:11:34Z</time>
      </trkpt>
      <trkpt lat="43.94516" lon="6.47888">
        <ele>1010</ele>
        <time>2022-06-09T18:11:42Z</time>
      </trkpt>
      <trkpt lat="43.94551" lon="6.47925">
        <ele>1004</ele>
        <time>2022-06-09T18:11:52Z</time>
      </trkpt>
      <trkpt lat="43.94559" lon="6.4795">
        <ele>1003</ele>
        <time>2022-06-09T18:11:57Z</time>
      </trkpt>
      <trkpt lat="43.94573" lon="6.47972">
        <ele>1001</ele>
        <time>2022-06-09T18:12:02Z</time>
      </trkpt>
      <trkpt lat="43.94592" lon="6.47987">
        <ele>998</ele>
        <time>2022-06-09T18:12:07Z</time>
      </trkpt>
      <trkpt lat="43.94606" lon="6.48009">
        <ele>996</ele>
        <time>2022-06-09T18:12:12Z</time>
      </trkpt>
      <trkpt lat="43.94611" lon="6.4803">
        <ele>995</ele>
        <time>2022-06-09T18:12:15Z</time>
      </trkpt>
      <trkpt lat="43.94608" lon="6.48069">
        <ele>996</ele>
        <time>2022-06-09T18:12:22Z</time>
      </trkpt>
      <trkpt lat="43.9461" lon="6.48074">
        <ele>996</ele>
        <time>2022-06-09T18:12:23Z</time>
      </trkpt>
      <trkpt lat="43.94636" lon="6.4811">
        <ele>994</ele>
        <time>2022-06-09T18:12:32Z</time>
      </trkpt>
      <trkpt lat="43.94648" lon="6.48118">
        <ele>993</ele>
        <time>2022-06-09T18:12:35Z</time>
      </trkpt>
      <trkpt lat="43.94659" lon="6.4813">
        <ele>992</ele>
        <time>2022-06-09T18:12:38Z</time>
      </trkpt>
      <trkpt lat="43.94671" lon="6.48135">
        <ele>991</ele>
        <time>2022-06-09T18:12:41Z</time>
      </trkpt>
      <trkpt lat="43.94677" lon="6.48141">
        <ele>990</ele>
        <time>2022-06-09T18:12:43Z</time>
      </trkpt>
      <trkpt lat="43.94711" lon="6.48195">
        <ele>986</ele>
        <time>2022-06-09T18:12:55Z</time>
      </trkpt>
      <trkpt lat="43.94739" lon="6.4823">
        <ele>983</ele>
        <time>2022-06-09T18:13:03Z</time>
      </trkpt>
      <trkpt lat="43.94761" lon="6.48269">
        <ele>982</ele>
        <time>2022-06-09T18:13:12Z</time>
      </trkpt>
      <trkpt lat="43.94774" lon="6.48298">
        <ele>981</ele>
        <time>2022-06-09T18:13:17Z</time>
      </trkpt>
      <trkpt lat="43.94791" lon="6.48325">
        <ele>981</ele>
        <time>2022-06-09T18:13:24Z</time>
      </trkpt>
      <trkpt lat="43.94798" lon="6.48332">
        <ele>980</ele>
        <time>2022-06-09T18:13:26Z</time>
      </trkpt>
      <trkpt lat="43.94821" lon="6.48343">
        <ele>979</ele>
        <time>2022-06-09T18:13:31Z</time>
      </trkpt>
      <trkpt lat="43.94844" lon="6.48364">
        <ele>973</ele>
        <time>2022-06-09T18:13:38Z</time>
      </trkpt>
      <trkpt lat="43.94849" lon="6.48372">
        <ele>971</ele>
        <time>2022-06-09T18:13:39Z</time>
      </trkpt>
      <trkpt lat="43.94852" lon="6.4838">
        <ele>970</ele>
        <time>2022-06-09T18:13:41Z</time>
      </trkpt>
      <trkpt lat="43.94852" lon="6.48389">
        <ele>970</ele>
        <time>2022-06-09T18:13:42Z</time>
      </trkpt>
      <trkpt lat="43.94842" lon="6.48447">
        <ele>969</ele>
        <time>2022-06-09T18:13:52Z</time>
      </trkpt>
      <trkpt lat="43.94832" lon="6.4847">
        <ele>970</ele>
        <time>2022-06-09T18:13:57Z</time>
      </trkpt>
      <trkpt lat="43.9481" lon="6.48497">
        <ele>973</ele>
        <time>2022-06-09T18:14:04Z</time>
      </trkpt>
      <trkpt lat="43.94806" lon="6.48516">
        <ele>974</ele>
        <time>2022-06-09T18:14:07Z</time>
      </trkpt>
      <trkpt lat="43.94808" lon="6.48558">
        <ele>972</ele>
        <time>2022-06-09T18:14:14Z</time>
      </trkpt>
      <trkpt lat="43.94811" lon="6.48569">
        <ele>971</ele>
        <time>2022-06-09T18:14:16Z</time>
      </trkpt>
      <trkpt lat="43.94838" lon="6.48615">
        <ele>962</ele>
        <time>2022-06-09T18:14:26Z</time>
      </trkpt>
      <trkpt lat="43.94841" lon="6.48618">
        <ele>961</ele>
        <time>2022-06-09T18:14:27Z</time>
      </trkpt>
      <trkpt lat="43.94851" lon="6.48617">
        <ele>959</ele>
        <time>2022-06-09T18:14:29Z</time>
      </trkpt>
      <trkpt lat="43.9486" lon="6.48612">
        <ele>957</ele>
        <time>2022-06-09T18:14:32Z</time>
      </trkpt>
      <trkpt lat="43.94865" lon="6.48606">
        <ele>956</ele>
        <time>2022-06-09T18:14:33Z</time>
      </trkpt>
      <trkpt lat="43.9486" lon="6.48574">
        <ele>957</ele>
        <time>2022-06-09T18:14:39Z</time>
      </trkpt>
      <trkpt lat="43.94862" lon="6.48559">
        <ele>957</ele>
        <time>2022-06-09T18:14:41Z</time>
      </trkpt>
      <trkpt lat="43.94868" lon="6.48558">
        <ele>955</ele>
        <time>2022-06-09T18:14:43Z</time>
      </trkpt>
      <trkpt lat="43.94891" lon="6.48562">
        <ele>949</ele>
        <time>2022-06-09T18:14:48Z</time>
      </trkpt>
      <trkpt lat="43.94896" lon="6.48561">
        <ele>948</ele>
        <time>2022-06-09T18:14:49Z</time>
      </trkpt>
      <trkpt lat="43.94907" lon="6.48551">
        <ele>945</ele>
        <time>2022-06-09T18:14:52Z</time>
      </trkpt>
      <trkpt lat="43.94919" lon="6.48513">
        <ele>943</ele>
        <time>2022-06-09T18:14:59Z</time>
      </trkpt>
      <trkpt lat="43.94932" lon="6.48492">
        <ele>944</ele>
        <time>2022-06-09T18:15:04Z</time>
      </trkpt>
      <trkpt lat="43.94948" lon="6.48473">
        <ele>944</ele>
        <time>2022-06-09T18:15:09Z</time>
      </trkpt>
      <trkpt lat="43.94958" lon="6.48442">
        <ele>943</ele>
        <time>2022-06-09T18:15:15Z</time>
      </trkpt>
      <trkpt lat="43.94974" lon="6.48418">
        <ele>940</ele>
        <time>2022-06-09T18:15:20Z</time>
      </trkpt>
      <trkpt lat="43.94989" lon="6.48377">
        <ele>935</ele>
        <time>2022-06-09T18:15:28Z</time>
      </trkpt>
      <trkpt lat="43.95011" lon="6.48347">
        <ele>931</ele>
        <time>2022-06-09T18:15:35Z</time>
      </trkpt>
      <trkpt lat="43.95017" lon="6.48342">
        <ele>930</ele>
        <time>2022-06-09T18:15:37Z</time>
      </trkpt>
      <trkpt lat="43.9503" lon="6.4834">
        <ele>930</ele>
        <time>2022-06-09T18:15:40Z</time>
      </trkpt>
      <trkpt lat="43.95042" lon="6.48342">
        <ele>931</ele>
        <time>2022-06-09T18:15:43Z</time>
      </trkpt>
      <trkpt lat="43.95058" lon="6.4835">
        <ele>933</ele>
        <time>2022-06-09T18:15:47Z</time>
      </trkpt>
      <trkpt lat="43.95097" lon="6.48349">
        <ele>936</ele>
        <time>2022-06-09T18:15:56Z</time>
      </trkpt>
      <trkpt lat="43.95136" lon="6.48333">
        <ele>939</ele>
        <time>2022-06-09T18:16:05Z</time>
      </trkpt>
      <trkpt lat="43.95154" lon="6.48315">
        <ele>940</ele>
        <time>2022-06-09T18:16:10Z</time>
      </trkpt>
      <trkpt lat="43.95164" lon="6.48288">
        <ele>938</ele>
        <time>2022-06-09T18:16:15Z</time>
      </trkpt>
      <trkpt lat="43.95169" lon="6.48168">
        <ele>930</ele>
        <time>2022-06-09T18:16:36Z</time>
      </trkpt>
      <trkpt lat="43.95166" lon="6.48115">
        <ele>925</ele>
        <time>2022-06-09T18:16:45Z</time>
      </trkpt>
      <trkpt lat="43.9517" lon="6.48088">
        <ele>923</ele>
        <time>2022-06-09T18:16:49Z</time>
      </trkpt>
      <trkpt lat="43.9518" lon="6.4806">
        <ele>922</ele>
        <time>2022-06-09T18:16:54Z</time>
      </trkpt>
      <trkpt lat="43.95192" lon="6.48045">
        <ele>922</ele>
        <time>2022-06-09T18:16:58Z</time>
      </trkpt>
      <trkpt lat="43.95214" lon="6.48039">
        <ele>923</ele>
        <time>2022-06-09T18:17:03Z</time>
      </trkpt>
      <trkpt lat="43.95219" lon="6.48039">
        <ele>924</ele>
        <time>2022-06-09T18:17:05Z</time>
      </trkpt>
      <trkpt lat="43.9523" lon="6.48046">
        <ele>925</ele>
        <time>2022-06-09T18:17:07Z</time>
      </trkpt>
      <trkpt lat="43.95241" lon="6.48062">
        <ele>928</ele>
        <time>2022-06-09T18:17:11Z</time>
      </trkpt>
      <trkpt lat="43.95246" lon="6.48086">
        <ele>931</ele>
        <time>2022-06-09T18:17:15Z</time>
      </trkpt>
      <trkpt lat="43.95257" lon="6.48115">
        <ele>936</ele>
        <time>2022-06-09T18:17:21Z</time>
      </trkpt>
      <trkpt lat="43.95258" lon="6.48136">
        <ele>938</ele>
        <time>2022-06-09T18:17:24Z</time>
      </trkpt>
      <trkpt lat="43.95262" lon="6.48146">
        <ele>939</ele>
        <time>2022-06-09T18:17:26Z</time>
      </trkpt>
      <trkpt lat="43.95289" lon="6.4818">
        <ele>944</ele>
        <time>2022-06-09T18:17:35Z</time>
      </trkpt>
      <trkpt lat="43.95297" lon="6.48187">
        <ele>945</ele>
        <time>2022-06-09T18:17:37Z</time>
      </trkpt>
      <trkpt lat="43.95308" lon="6.48192">
        <ele>946</ele>
        <time>2022-06-09T18:17:40Z</time>
      </trkpt>
      <trkpt lat="43.95321" lon="6.48192">
        <ele>946</ele>
        <time>2022-06-09T18:17:43Z</time>
      </trkpt>
      <trkpt lat="43.95344" lon="6.482">
        <ele>948</ele>
        <time>2022-06-09T18:17:48Z</time>
      </trkpt>
      <trkpt lat="43.95373" lon="6.48224">
        <ele>952</ele>
        <time>2022-06-09T18:17:56Z</time>
      </trkpt>
      <trkpt lat="43.95388" lon="6.48227">
        <ele>953</ele>
        <time>2022-06-09T18:18:00Z</time>
      </trkpt>
      <trkpt lat="43.95415" lon="6.48223">
        <ele>953</ele>
        <time>2022-06-09T18:18:06Z</time>
      </trkpt>
      <trkpt lat="43.95429" lon="6.48214">
        <ele>953</ele>
        <time>2022-06-09T18:18:10Z</time>
      </trkpt>
      <trkpt lat="43.95453" lon="6.48214">
        <ele>953</ele>
        <time>2022-06-09T18:18:15Z</time>
      </trkpt>
      <trkpt lat="43.95492" lon="6.4825">
        <ele>952</ele>
        <time>2022-06-09T18:18:26Z</time>
      </trkpt>
      <trkpt lat="43.95506" lon="6.4828">
        <ele>960</ele>
        <time>2022-06-09T18:18:32Z</time>
      </trkpt>
      <trkpt lat="43.95528" lon="6.48316">
        <ele>967</ele>
        <time>2022-06-09T18:18:40Z</time>
      </trkpt>
      <trkpt lat="43.95557" lon="6.48348">
        <ele>969</ele>
        <time>2022-06-09T18:18:49Z</time>
      </trkpt>
      <trkpt lat="43.95576" lon="6.48379">
        <ele>972</ele>
        <time>2022-06-09T18:18:56Z</time>
      </trkpt>
      <trkpt lat="43.95582" lon="6.48383">
        <ele>971</ele>
        <time>2022-06-09T18:18:57Z</time>
      </trkpt>
      <trkpt lat="43.95582" lon="6.48381">
        <ele>971</ele>
        <time>2022-06-09T18:18:58Z</time>
      </trkpt>
      <trkpt lat="43.95609" lon="6.48405">
        <ele>972</ele>
        <time>2022-06-09T18:19:05Z</time>
      </trkpt>
      <trkpt lat="43.95651" lon="6.48425">
        <ele>969</ele>
        <time>2022-06-09T18:19:15Z</time>
      </trkpt>
      <trkpt lat="43.95673" lon="6.48442">
        <ele>970</ele>
        <time>2022-06-09T18:19:21Z</time>
      </trkpt>
      <trkpt lat="43.9567" lon="6.48449">
        <ele>971</ele>
        <time>2022-06-09T18:19:23Z</time>
      </trkpt>
      <trkpt lat="43.95624" lon="6.48447">
        <ele>979</ele>
        <time>2022-06-09T18:19:33Z</time>
      </trkpt>
      <trkpt lat="43.95599" lon="6.48434">
        <ele>980</ele>
        <time>2022-06-09T18:19:40Z</time>
      </trkpt>
      <trkpt lat="43.95509" lon="6.48398">
        <ele>991</ele>
        <time>2022-06-09T18:20:02Z</time>
      </trkpt>
      <trkpt lat="43.95497" lon="6.48392">
        <ele>992</ele>
        <time>2022-06-09T18:20:05Z</time>
      </trkpt>
      <trkpt lat="43.95495" lon="6.48387">
        <ele>990</ele>
        <time>2022-06-09T18:20:05Z</time>
      </trkpt>
      <trkpt lat="43.95476" lon="6.48378">
        <ele>990</ele>
        <time>2022-06-09T18:20:10Z</time>
      </trkpt>
      <trkpt lat="43.95457" lon="6.48377">
        <ele>992</ele>
        <time>2022-06-09T18:20:15Z</time>
      </trkpt>
      <trkpt lat="43.95448" lon="6.48381">
        <ele>994</ele>
        <time>2022-06-09T18:20:17Z</time>
      </trkpt>
      <trkpt lat="43.95427" lon="6.48383">
        <ele>998</ele>
        <time>2022-06-09T18:20:22Z</time>
      </trkpt>
      <trkpt lat="43.95406" lon="6.48362">
        <ele>994</ele>
        <time>2022-06-09T18:20:28Z</time>
      </trkpt>
      <trkpt lat="43.95397" lon="6.48357">
        <ele>993</ele>
        <time>2022-06-09T18:20:30Z</time>
      </trkpt>
      <trkpt lat="43.95384" lon="6.4836">
        <ele>995</ele>
        <time>2022-06-09T18:20:33Z</time>
      </trkpt>
      <trkpt lat="43.95374" lon="6.48368">
        <ele>998</ele>
        <time>2022-06-09T18:20:36Z</time>
      </trkpt>
      <trkpt lat="43.95363" lon="6.48397">
        <ele>1007</ele>
        <time>2022-06-09T18:20:41Z</time>
      </trkpt>
      <trkpt lat="43.95358" lon="6.48401">
        <ele>1008</ele>
        <time>2022-06-09T18:20:43Z</time>
      </trkpt>
      <trkpt lat="43.95347" lon="6.48399">
        <ele>1009</ele>
        <time>2022-06-09T18:20:45Z</time>
      </trkpt>
      <trkpt lat="43.95319" lon="6.48383">
        <ele>1003</ele>
        <time>2022-06-09T18:20:52Z</time>
      </trkpt>
      <trkpt lat="43.95311" lon="6.48381">
        <ele>1001</ele>
        <time>2022-06-09T18:20:54Z</time>
      </trkpt>
      <trkpt lat="43.95302" lon="6.48388">
        <ele>1001</ele>
        <time>2022-06-09T18:20:57Z</time>
      </trkpt>
      <trkpt lat="43.95298" lon="6.48397">
        <ele>1002</ele>
        <time>2022-06-09T18:20:58Z</time>
      </trkpt>
      <trkpt lat="43.95288" lon="6.48442">
        <ele>1007</ele>
        <time>2022-06-09T18:21:06Z</time>
      </trkpt>
      <trkpt lat="43.95288" lon="6.48459">
        <ele>1009</ele>
        <time>2022-06-09T18:21:09Z</time>
      </trkpt>
      <trkpt lat="43.95296" lon="6.48503">
        <ele>1015</ele>
        <time>2022-06-09T18:21:17Z</time>
      </trkpt>
      <trkpt lat="43.95302" lon="6.48511">
        <ele>1017</ele>
        <time>2022-06-09T18:21:19Z</time>
      </trkpt>
      <trkpt lat="43.95318" lon="6.48519">
        <ele>1021</ele>
        <time>2022-06-09T18:21:23Z</time>
      </trkpt>
      <trkpt lat="43.95328" lon="6.48532">
        <ele>1024</ele>
        <time>2022-06-09T18:21:26Z</time>
      </trkpt>
      <trkpt lat="43.95327" lon="6.48582">
        <ele>1029</ele>
        <time>2022-06-09T18:21:34Z</time>
      </trkpt>
      <trkpt lat="43.95321" lon="6.4862">
        <ele>1032</ele>
        <time>2022-06-09T18:21:41Z</time>
      </trkpt>
      <trkpt lat="43.95296" lon="6.48665">
        <ele>1031</ele>
        <time>2022-06-09T18:21:50Z</time>
      </trkpt>
      <trkpt lat="43.95269" lon="6.48707">
        <ele>1030</ele>
        <time>2022-06-09T18:22:00Z</time>
      </trkpt>
      <trkpt lat="43.95238" lon="6.48775">
        <ele>1034</ele>
        <time>2022-06-09T18:22:13Z</time>
      </trkpt>
      <trkpt lat="43.95209" lon="6.48817">
        <ele>1036</ele>
        <time>2022-06-09T18:22:23Z</time>
      </trkpt>
      <trkpt lat="43.95197" lon="6.48843">
        <ele>1038</ele>
        <time>2022-06-09T18:22:28Z</time>
      </trkpt>
      <trkpt lat="43.95168" lon="6.48881">
        <ele>1039</ele>
        <time>2022-06-09T18:22:38Z</time>
      </trkpt>
      <trkpt lat="43.95159" lon="6.48902">
        <ele>1044</ele>
        <time>2022-06-09T18:22:42Z</time>
      </trkpt>
      <trkpt lat="43.95142" lon="6.4892">
        <ele>1047</ele>
        <time>2022-06-09T18:22:47Z</time>
      </trkpt>
      <trkpt lat="43.95113" lon="6.48936">
        <ele>1050</ele>
        <time>2022-06-09T18:22:54Z</time>
      </trkpt>
      <trkpt lat="43.95093" lon="6.48942">
        <ele>1051</ele>
        <time>2022-06-09T18:22:59Z</time>
      </trkpt>
      <trkpt lat="43.9502" lon="6.48953">
        <ele>1049</ele>
        <time>2022-06-09T18:23:16Z</time>
      </trkpt>
      <trkpt lat="43.94983" lon="6.48943">
        <ele>1038</ele>
        <time>2022-06-09T18:23:25Z</time>
      </trkpt>
      <trkpt lat="43.94965" lon="6.48954">
        <ele>1036</ele>
        <time>2022-06-09T18:23:29Z</time>
      </trkpt>
      <trkpt lat="43.94943" lon="6.48991">
        <ele>1044</ele>
        <time>2022-06-09T18:23:38Z</time>
      </trkpt>
      <trkpt lat="43.94929" lon="6.49006">
        <ele>1045</ele>
        <time>2022-06-09T18:23:42Z</time>
      </trkpt>
      <trkpt lat="43.94865" lon="6.49092">
        <ele>1053</ele>
        <time>2022-06-09T18:24:02Z</time>
      </trkpt>
      <trkpt lat="43.94849" lon="6.49115">
        <ele>1051</ele>
        <time>2022-06-09T18:24:08Z</time>
      </trkpt>
      <trkpt lat="43.94839" lon="6.49135">
        <ele>1052</ele>
        <time>2022-06-09T18:24:12Z</time>
      </trkpt>
      <trkpt lat="43.9482" lon="6.49157">
        <ele>1051</ele>
        <time>2022-06-09T18:24:18Z</time>
      </trkpt>
      <trkpt lat="43.94815" lon="6.49176">
        <ele>1054</ele>
        <time>2022-06-09T18:24:21Z</time>
      </trkpt>
      <trkpt lat="43.94802" lon="6.49204">
        <ele>1056</ele>
        <time>2022-06-09T18:24:27Z</time>
      </trkpt>
      <trkpt lat="43.94763" lon="6.49226">
        <ele>1051</ele>
        <time>2022-06-09T18:24:37Z</time>
      </trkpt>
      <trkpt lat="43.94752" lon="6.49245">
        <ele>1052</ele>
        <time>2022-06-09T18:24:41Z</time>
      </trkpt>
      <trkpt lat="43.94746" lon="6.49267">
        <ele>1053</ele>
        <time>2022-06-09T18:24:45Z</time>
      </trkpt>
      <trkpt lat="43.94722" lon="6.49291">
        <ele>1049</ele>
        <time>2022-06-09T18:24:51Z</time>
      </trkpt>
      <trkpt lat="43.94716" lon="6.49323">
        <ele>1052</ele>
        <time>2022-06-09T18:24:57Z</time>
      </trkpt>
      <trkpt lat="43.94726" lon="6.49351">
        <ele>1059</ele>
        <time>2022-06-09T18:25:02Z</time>
      </trkpt>
      <trkpt lat="43.94729" lon="6.49369">
        <ele>1063</ele>
        <time>2022-06-09T18:25:05Z</time>
      </trkpt>
      <trkpt lat="43.94719" lon="6.49412">
        <ele>1066</ele>
        <time>2022-06-09T18:25:13Z</time>
      </trkpt>
      <trkpt lat="43.94716" lon="6.49414">
        <ele>1066</ele>
        <time>2022-06-09T18:25:14Z</time>
      </trkpt>
      <trkpt lat="43.94706" lon="6.49414">
        <ele>1064</ele>
        <time>2022-06-09T18:25:16Z</time>
      </trkpt>
      <trkpt lat="43.947" lon="6.49411">
        <ele>1062</ele>
        <time>2022-06-09T18:25:18Z</time>
      </trkpt>
      <trkpt lat="43.94685" lon="6.49422">
        <ele>1060</ele>
        <time>2022-06-09T18:25:22Z</time>
      </trkpt>
      <trkpt lat="43.94675" lon="6.49446">
        <ele>1062</ele>
        <time>2022-06-09T18:25:26Z</time>
      </trkpt>
      <trkpt lat="43.94669" lon="6.4947">
        <ele>1065</ele>
        <time>2022-06-09T18:25:30Z</time>
      </trkpt>
      <trkpt lat="43.94658" lon="6.49473">
        <ele>1064</ele>
        <time>2022-06-09T18:25:33Z</time>
      </trkpt>
      <trkpt lat="43.94631" lon="6.49491">
        <ele>1065</ele>
        <time>2022-06-09T18:25:40Z</time>
      </trkpt>
      <trkpt lat="43.94594" lon="6.49541">
        <ele>1073</ele>
        <time>2022-06-09T18:25:52Z</time>
      </trkpt>
      <trkpt lat="43.94571" lon="6.49561">
        <ele>1075</ele>
        <time>2022-06-09T18:25:58Z</time>
      </trkpt>
      <trkpt lat="43.9456" lon="6.49569">
        <ele>1076</ele>
        <time>2022-06-09T18:26:01Z</time>
      </trkpt>
      <trkpt lat="43.94535" lon="6.49574">
        <ele>1074</ele>
        <time>2022-06-09T18:26:07Z</time>
      </trkpt>
      <trkpt lat="43.94507" lon="6.49588">
        <ele>1076</ele>
        <time>2022-06-09T18:26:14Z</time>
      </trkpt>
      <trkpt lat="43.94493" lon="6.49598">
        <ele>1078</ele>
        <time>2022-06-09T18:26:18Z</time>
      </trkpt>
      <trkpt lat="43.94483" lon="6.4961">
        <ele>1080</ele>
        <time>2022-06-09T18:26:21Z</time>
      </trkpt>
      <trkpt lat="43.94472" lon="6.49618">
        <ele>1081</ele>
        <time>2022-06-09T18:26:24Z</time>
      </trkpt>
      <trkpt lat="43.94473" lon="6.4962">
        <ele>1082</ele>
        <time>2022-06-09T18:26:24Z</time>
      </trkpt>
      <trkpt lat="43.94467" lon="6.49621">
        <ele>1081</ele>
        <time>2022-06-09T18:26:26Z</time>
      </trkpt>
      <trkpt lat="43.9444" lon="6.4964">
        <ele>1081</ele>
        <time>2022-06-09T18:26:33Z</time>
      </trkpt>
      <trkpt lat="43.94417" lon="6.49672">
        <ele>1084</ele>
        <time>2022-06-09T18:26:40Z</time>
      </trkpt>
      <trkpt lat="43.94386" lon="6.49699">
        <ele>1086</ele>
        <time>2022-06-09T18:26:49Z</time>
      </trkpt>
      <trkpt lat="43.94341" lon="6.49765">
        <ele>1085</ele>
        <time>2022-06-09T18:27:04Z</time>
      </trkpt>
      <trkpt lat="43.94324" lon="6.49805">
        <ele>1085</ele>
        <time>2022-06-09T18:27:12Z</time>
      </trkpt>
      <trkpt lat="43.94313" lon="6.49851">
        <ele>1087</ele>
        <time>2022-06-09T18:27:20Z</time>
      </trkpt>
      <trkpt lat="43.94306" lon="6.49863">
        <ele>1086</ele>
        <time>2022-06-09T18:27:23Z</time>
      </trkpt>
      <trkpt lat="43.94282" lon="6.4988">
        <ele>1084</ele>
        <time>2022-06-09T18:27:29Z</time>
      </trkpt>
      <trkpt lat="43.94271" lon="6.49893">
        <ele>1084</ele>
        <time>2022-06-09T18:27:32Z</time>
      </trkpt>
      <trkpt lat="43.94229" lon="6.49925">
        <ele>1088</ele>
        <time>2022-06-09T18:27:44Z</time>
      </trkpt>
      <trkpt lat="43.94218" lon="6.49939">
        <ele>1091</ele>
        <time>2022-06-09T18:27:47Z</time>
      </trkpt>
      <trkpt lat="43.94206" lon="6.4999">
        <ele>1095</ele>
        <time>2022-06-09T18:27:56Z</time>
      </trkpt>
      <trkpt lat="43.94195" lon="6.50023">
        <ele>1097</ele>
        <time>2022-06-09T18:28:02Z</time>
      </trkpt>
      <trkpt lat="43.94181" lon="6.5005">
        <ele>1099</ele>
        <time>2022-06-09T18:28:08Z</time>
      </trkpt>
      <trkpt lat="43.94165" lon="6.50095">
        <ele>1100</ele>
        <time>2022-06-09T18:28:16Z</time>
      </trkpt>
      <trkpt lat="43.94157" lon="6.50111">
        <ele>1101</ele>
        <time>2022-06-09T18:28:20Z</time>
      </trkpt>
      <trkpt lat="43.94138" lon="6.50132">
        <ele>1105</ele>
        <time>2022-06-09T18:28:25Z</time>
      </trkpt>
      <trkpt lat="43.94116" lon="6.50183">
        <ele>1107</ele>
        <time>2022-06-09T18:28:35Z</time>
      </trkpt>
      <trkpt lat="43.94093" lon="6.50226">
        <ele>1109</ele>
        <time>2022-06-09T18:28:44Z</time>
      </trkpt>
      <trkpt lat="43.94083" lon="6.50266">
        <ele>1108</ele>
        <time>2022-06-09T18:28:51Z</time>
      </trkpt>
      <trkpt lat="43.94077" lon="6.50305">
        <ele>1108</ele>
        <time>2022-06-09T18:28:58Z</time>
      </trkpt>
      <trkpt lat="43.94068" lon="6.50314">
        <ele>1108</ele>
        <time>2022-06-09T18:29:01Z</time>
      </trkpt>
      <trkpt lat="43.94062" lon="6.50333">
        <ele>1107</ele>
        <time>2022-06-09T18:29:04Z</time>
      </trkpt>
      <trkpt lat="43.94056" lon="6.50338">
        <ele>1106</ele>
        <time>2022-06-09T18:29:06Z</time>
      </trkpt>
      <trkpt lat="43.94041" lon="6.50333">
        <ele>1106</ele>
        <time>2022-06-09T18:29:09Z</time>
      </trkpt>
      <trkpt lat="43.94022" lon="6.50335">
        <ele>1105</ele>
        <time>2022-06-09T18:29:14Z</time>
      </trkpt>
      <trkpt lat="43.94017" lon="6.50332">
        <ele>1105</ele>
        <time>2022-06-09T18:29:15Z</time>
      </trkpt>
      <trkpt lat="43.93975" lon="6.50324">
        <ele>1108</ele>
        <time>2022-06-09T18:29:25Z</time>
      </trkpt>
      <trkpt lat="43.93975" lon="6.50327">
        <ele>1107</ele>
        <time>2022-06-09T18:29:26Z</time>
      </trkpt>
      <trkpt lat="43.9397" lon="6.5033">
        <ele>1107</ele>
        <time>2022-06-09T18:29:27Z</time>
      </trkpt>
      <trkpt lat="43.93956" lon="6.50329">
        <ele>1108</ele>
        <time>2022-06-09T18:29:30Z</time>
      </trkpt>
      <trkpt lat="43.93955" lon="6.50334">
        <ele>1108</ele>
        <time>2022-06-09T18:29:31Z</time>
      </trkpt>
      <trkpt lat="43.93949" lon="6.5033">
        <ele>1109</ele>
        <time>2022-06-09T18:29:32Z</time>
      </trkpt>
      <trkpt lat="43.93941" lon="6.50316">
        <ele>1111</ele>
        <time>2022-06-09T18:29:35Z</time>
      </trkpt>
      <trkpt lat="43.93947" lon="6.50302">
        <ele>1113</ele>
        <time>2022-06-09T18:29:38Z</time>
      </trkpt>
      <trkpt lat="43.9395" lon="6.50301">
        <ele>1113</ele>
        <time>2022-06-09T18:29:39Z</time>
      </trkpt>
      <trkpt lat="43.93966" lon="6.50315">
        <ele>1110</ele>
        <time>2022-06-09T18:29:43Z</time>
      </trkpt>
      <trkpt lat="43.93978" lon="6.50322">
        <ele>1108</ele>
        <time>2022-06-09T18:29:46Z</time>
      </trkpt>
      <trkpt lat="43.94" lon="6.50329">
        <ele>1105</ele>
        <time>2022-06-09T18:29:52Z</time>
      </trkpt>
      <trkpt lat="43.94035" lon="6.50334">
        <ele>1106</ele>
        <time>2022-06-09T18:30:00Z</time>
      </trkpt>
      <trkpt lat="43.94049" lon="6.50333">
        <ele>1106</ele>
        <time>2022-06-09T18:30:03Z</time>
      </trkpt>
      <trkpt lat="43.94067" lon="6.5034">
        <ele>1106</ele>
        <time>2022-06-09T18:30:08Z</time>
      </trkpt>
      <trkpt lat="43.94089" lon="6.50335">
        <ele>1108</ele>
        <time>2022-06-09T18:30:13Z</time>
      </trkpt>
      <trkpt lat="43.94105" lon="6.50335">
        <ele>1110</ele>
        <time>2022-06-09T18:30:16Z</time>
      </trkpt>
      <trkpt lat="43.94115" lon="6.50342">
        <ele>1110</ele>
        <time>2022-06-09T18:30:19Z</time>
      </trkpt>
      <trkpt lat="43.94131" lon="6.50312">
        <ele>1112</ele>
        <time>2022-06-09T18:30:25Z</time>
      </trkpt>
      <trkpt lat="43.94133" lon="6.50295">
        <ele>1110</ele>
        <time>2022-06-09T18:30:28Z</time>
      </trkpt>
      <trkpt lat="43.94134" lon="6.50297">
        <ele>1111</ele>
        <time>2022-06-09T18:30:29Z</time>
      </trkpt>
      <trkpt lat="43.9414" lon="6.50289">
        <ele>1110</ele>
        <time>2022-06-09T18:30:31Z</time>
      </trkpt>
      <trkpt lat="43.9415" lon="6.50264">
        <ele>1108</ele>
        <time>2022-06-09T18:30:35Z</time>
      </trkpt>
      <trkpt lat="43.94179" lon="6.50229">
        <ele>1105</ele>
        <time>2022-06-09T18:30:44Z</time>
      </trkpt>
      <trkpt lat="43.9422" lon="6.50201">
        <ele>1103</ele>
        <time>2022-06-09T18:30:55Z</time>
      </trkpt>
      <trkpt lat="43.94245" lon="6.50177">
        <ele>1099</ele>
        <time>2022-06-09T18:31:02Z</time>
      </trkpt>
      <trkpt lat="43.94324" lon="6.50113">
        <ele>1095</ele>
        <time>2022-06-09T18:31:24Z</time>
      </trkpt>
      <trkpt lat="43.94335" lon="6.50114">
        <ele>1096</ele>
        <time>2022-06-09T18:31:26Z</time>
      </trkpt>
      <trkpt lat="43.94413" lon="6.50143">
        <ele>1103</ele>
        <time>2022-06-09T18:31:45Z</time>
      </trkpt>
      <trkpt lat="43.94446" lon="6.50168">
        <ele>1106</ele>
        <time>2022-06-09T18:31:54Z</time>
      </trkpt>
      <trkpt lat="43.94468" lon="6.50181">
        <ele>1110</ele>
        <time>2022-06-09T18:31:59Z</time>
      </trkpt>
      <trkpt lat="43.94515" lon="6.50194">
        <ele>1114</ele>
        <time>2022-06-09T18:32:11Z</time>
      </trkpt>
      <trkpt lat="43.94531" lon="6.50201">
        <ele>1116</ele>
        <time>2022-06-09T18:32:14Z</time>
      </trkpt>
      <trkpt lat="43.94583" lon="6.50207">
        <ele>1121</ele>
        <time>2022-06-09T18:32:27Z</time>
      </trkpt>
      <trkpt lat="43.94583" lon="6.50205">
        <ele>1120</ele>
        <time>2022-06-09T18:32:27Z</time>
      </trkpt>
      <trkpt lat="43.94585" lon="6.50206">
        <ele>1121</ele>
        <time>2022-06-09T18:32:27Z</time>
      </trkpt>
      <trkpt lat="43.94593" lon="6.50202">
        <ele>1122</ele>
        <time>2022-06-09T18:32:29Z</time>
      </trkpt>
      <trkpt lat="43.94622" lon="6.50214">
        <ele>1129</ele>
        <time>2022-06-09T18:32:36Z</time>
      </trkpt>
      <trkpt lat="43.94654" lon="6.50217">
        <ele>1134</ele>
        <time>2022-06-09T18:32:44Z</time>
      </trkpt>
      <trkpt lat="43.94667" lon="6.50226">
        <ele>1137</ele>
        <time>2022-06-09T18:32:47Z</time>
      </trkpt>
      <trkpt lat="43.94675" lon="6.50227">
        <ele>1139</ele>
        <time>2022-06-09T18:32:49Z</time>
      </trkpt>
      <trkpt lat="43.94693" lon="6.50227">
        <ele>1141</ele>
        <time>2022-06-09T18:32:53Z</time>
      </trkpt>
      <trkpt lat="43.94725" lon="6.50222">
        <ele>1145</ele>
        <time>2022-06-09T18:33:01Z</time>
      </trkpt>
      <trkpt lat="43.94744" lon="6.50214">
        <ele>1148</ele>
        <time>2022-06-09T18:33:06Z</time>
      </trkpt>
      <trkpt lat="43.94754" lon="6.50213">
        <ele>1149</ele>
        <time>2022-06-09T18:33:08Z</time>
      </trkpt>
      <trkpt lat="43.94765" lon="6.50216">
        <ele>1150</ele>
        <time>2022-06-09T18:33:11Z</time>
      </trkpt>
      <trkpt lat="43.94786" lon="6.50213">
        <ele>1152</ele>
        <time>2022-06-09T18:33:16Z</time>
      </trkpt>
      <trkpt lat="43.94797" lon="6.50214">
        <ele>1153</ele>
        <time>2022-06-09T18:33:18Z</time>
      </trkpt>
      <trkpt lat="43.94816" lon="6.50204">
        <ele>1156</ele>
        <time>2022-06-09T18:33:23Z</time>
      </trkpt>
      <trkpt lat="43.94824" lon="6.50212">
        <ele>1156</ele>
        <time>2022-06-09T18:33:25Z</time>
      </trkpt>
      <trkpt lat="43.94831" lon="6.50204">
        <ele>1157</ele>
        <time>2022-06-09T18:33:27Z</time>
      </trkpt>
      <trkpt lat="43.9485" lon="6.50169">
        <ele>1160</ele>
        <time>2022-06-09T18:33:35Z</time>
      </trkpt>
      <trkpt lat="43.94852" lon="6.50163">
        <ele>1161</ele>
        <time>2022-06-09T18:33:36Z</time>
      </trkpt>
      <trkpt lat="43.9485" lon="6.50161">
        <ele>1162</ele>
        <time>2022-06-09T18:33:36Z</time>
      </trkpt>
      <trkpt lat="43.94851" lon="6.50164">
        <ele>1161</ele>
        <time>2022-06-09T18:33:37Z</time>
      </trkpt>
      <trkpt lat="43.94853" lon="6.50162">
        <ele>1161</ele>
        <time>2022-06-09T18:33:37Z</time>
      </trkpt>
      <trkpt lat="43.94851" lon="6.50159">
        <ele>1162</ele>
        <time>2022-06-09T18:33:38Z</time>
      </trkpt>
      <trkpt lat="43.94848" lon="6.50159">
        <ele>1163</ele>
        <time>2022-06-09T18:33:39Z</time>
      </trkpt>
      <trkpt lat="43.94849" lon="6.50162">
        <ele>1162</ele>
        <time>2022-06-09T18:33:39Z</time>
      </trkpt>
      <trkpt lat="43.94855" lon="6.50165">
        <ele>1160</ele>
        <time>2022-06-09T18:33:41Z</time>
      </trkpt>
      <trkpt lat="43.94853" lon="6.50162">
        <ele>1161</ele>
        <time>2022-06-09T18:33:42Z</time>
      </trkpt>
      <trkpt lat="43.94857" lon="6.50159">
        <ele>1161</ele>
        <time>2022-06-09T18:33:43Z</time>
      </trkpt>
      <trkpt lat="43.94866" lon="6.50125">
        <ele>1168</ele>
        <time>2022-06-09T18:33:49Z</time>
      </trkpt>
      <trkpt lat="43.94874" lon="6.50071">
        <ele>1180</ele>
        <time>2022-06-09T18:33:58Z</time>
      </trkpt>
      <trkpt lat="43.94878" lon="6.50061">
        <ele>1182</ele>
        <time>2022-06-09T18:34:00Z</time>
      </trkpt>
      <trkpt lat="43.94887" lon="6.50049">
        <ele>1184</ele>
        <time>2022-06-09T18:34:03Z</time>
      </trkpt>
      <trkpt lat="43.94924" lon="6.50003">
        <ele>1194</ele>
        <time>2022-06-09T18:34:14Z</time>
      </trkpt>
      <trkpt lat="43.94948" lon="6.49984">
        <ele>1195</ele>
        <time>2022-06-09T18:34:21Z</time>
      </trkpt>
      <trkpt lat="43.94963" lon="6.49968">
        <ele>1198</ele>
        <time>2022-06-09T18:34:25Z</time>
      </trkpt>
      <trkpt lat="43.94996" lon="6.49949">
        <ele>1201</ele>
        <time>2022-06-09T18:34:34Z</time>
      </trkpt>
      <trkpt lat="43.95008" lon="6.49945">
        <ele>1200</ele>
        <time>2022-06-09T18:34:37Z</time>
      </trkpt>
      <trkpt lat="43.9504" lon="6.49943">
        <ele>1195</ele>
        <time>2022-06-09T18:34:44Z</time>
      </trkpt>
      <trkpt lat="43.95055" lon="6.49936">
        <ele>1195</ele>
        <time>2022-06-09T18:34:48Z</time>
      </trkpt>
      <trkpt lat="43.95085" lon="6.49911">
        <ele>1198</ele>
        <time>2022-06-09T18:34:56Z</time>
      </trkpt>
      <trkpt lat="43.95125" lon="6.49849">
        <ele>1203</ele>
        <time>2022-06-09T18:35:10Z</time>
      </trkpt>
      <trkpt lat="43.95158" lon="6.49806">
        <ele>1202</ele>
        <time>2022-06-09T18:35:20Z</time>
      </trkpt>
      <trkpt lat="43.95176" lon="6.4977">
        <ele>1200</ele>
        <time>2022-06-09T18:35:28Z</time>
      </trkpt>
      <trkpt lat="43.95193" lon="6.49764">
        <ele>1197</ele>
        <time>2022-06-09T18:35:32Z</time>
      </trkpt>
      <trkpt lat="43.95209" lon="6.49765">
        <ele>1194</ele>
        <time>2022-06-09T18:35:36Z</time>
      </trkpt>
      <trkpt lat="43.95232" lon="6.49757">
        <ele>1190</ele>
        <time>2022-06-09T18:35:41Z</time>
      </trkpt>
      <trkpt lat="43.95281" lon="6.49714">
        <ele>1183</ele>
        <time>2022-06-09T18:35:55Z</time>
      </trkpt>
      <trkpt lat="43.953" lon="6.49703">
        <ele>1180</ele>
        <time>2022-06-09T18:35:59Z</time>
      </trkpt>
      <trkpt lat="43.9537" lon="6.49672">
        <ele>1173</ele>
        <time>2022-06-09T18:36:17Z</time>
      </trkpt>
      <trkpt lat="43.95429" lon="6.49674">
        <ele>1166</ele>
        <time>2022-06-09T18:36:30Z</time>
      </trkpt>
      <trkpt lat="43.95459" lon="6.49656">
        <ele>1161</ele>
        <time>2022-06-09T18:36:38Z</time>
      </trkpt>
      <trkpt lat="43.95478" lon="6.49649">
        <ele>1157</ele>
        <time>2022-06-09T18:36:43Z</time>
      </trkpt>
      <trkpt lat="43.95492" lon="6.49649">
        <ele>1154</ele>
        <time>2022-06-09T18:36:46Z</time>
      </trkpt>
      <trkpt lat="43.95544" lon="6.49661">
        <ele>1140</ele>
        <time>2022-06-09T18:36:58Z</time>
      </trkpt>
      <trkpt lat="43.95558" lon="6.4966">
        <ele>1136</ele>
        <time>2022-06-09T18:37:02Z</time>
      </trkpt>
      <trkpt lat="43.95569" lon="6.49655">
        <ele>1134</ele>
        <time>2022-06-09T18:37:04Z</time>
      </trkpt>
      <trkpt lat="43.95586" lon="6.49639">
        <ele>1131</ele>
        <time>2022-06-09T18:37:09Z</time>
      </trkpt>
      <trkpt lat="43.956" lon="6.49614">
        <ele>1129</ele>
        <time>2022-06-09T18:37:14Z</time>
      </trkpt>
      <trkpt lat="43.95632" lon="6.4953">
        <ele>1120</ele>
        <time>2022-06-09T18:37:30Z</time>
      </trkpt>
      <trkpt lat="43.95639" lon="6.4955">
        <ele>1118</ele>
        <time>2022-06-09T18:37:34Z</time>
      </trkpt>
      <trkpt lat="43.95647" lon="6.49602">
        <ele>1114</ele>
        <time>2022-06-09T18:37:43Z</time>
      </trkpt>
      <trkpt lat="43.95649" lon="6.49636">
        <ele>1112</ele>
        <time>2022-06-09T18:37:49Z</time>
      </trkpt>
      <trkpt lat="43.95645" lon="6.49656">
        <ele>1111</ele>
        <time>2022-06-09T18:37:52Z</time>
      </trkpt>
      <trkpt lat="43.95631" lon="6.49693">
        <ele>1106</ele>
        <time>2022-06-09T18:37:59Z</time>
      </trkpt>
      <trkpt lat="43.95622" lon="6.49708">
        <ele>1103</ele>
        <time>2022-06-09T18:38:03Z</time>
      </trkpt>
      <trkpt lat="43.95612" lon="6.49717">
        <ele>1102</ele>
        <time>2022-06-09T18:38:05Z</time>
      </trkpt>
      <trkpt lat="43.95606" lon="6.4972">
        <ele>1103</ele>
        <time>2022-06-09T18:38:07Z</time>
      </trkpt>
      <trkpt lat="43.95582" lon="6.49724">
        <ele>1107</ele>
        <time>2022-06-09T18:38:12Z</time>
      </trkpt>
      <trkpt lat="43.95564" lon="6.49731">
        <ele>1110</ele>
        <time>2022-06-09T18:38:17Z</time>
      </trkpt>
      <trkpt lat="43.95553" lon="6.49741">
        <ele>1110</ele>
        <time>2022-06-09T18:38:20Z</time>
      </trkpt>
      <trkpt lat="43.95539" lon="6.49759">
        <ele>1108</ele>
        <time>2022-06-09T18:38:24Z</time>
      </trkpt>
      <trkpt lat="43.95531" lon="6.49778">
        <ele>1102</ele>
        <time>2022-06-09T18:38:28Z</time>
      </trkpt>
      <trkpt lat="43.95524" lon="6.49783">
        <ele>1103</ele>
        <time>2022-06-09T18:38:30Z</time>
      </trkpt>
      <trkpt lat="43.95509" lon="6.49785">
        <ele>1107</ele>
        <time>2022-06-09T18:38:33Z</time>
      </trkpt>
      <trkpt lat="43.95506" lon="6.49796">
        <ele>1104</ele>
        <time>2022-06-09T18:38:35Z</time>
      </trkpt>
      <trkpt lat="43.95499" lon="6.49804">
        <ele>1103</ele>
        <time>2022-06-09T18:38:37Z</time>
      </trkpt>
      <trkpt lat="43.95482" lon="6.49838">
        <ele>1096</ele>
        <time>2022-06-09T18:38:44Z</time>
      </trkpt>
      <trkpt lat="43.95453" lon="6.49884">
        <ele>1087</ele>
        <time>2022-06-09T18:38:55Z</time>
      </trkpt>
      <trkpt lat="43.95468" lon="6.4988">
        <ele>1082</ele>
        <time>2022-06-09T18:38:58Z</time>
      </trkpt>
      <trkpt lat="43.95482" lon="6.4987">
        <ele>1081</ele>
        <time>2022-06-09T18:39:02Z</time>
      </trkpt>
      <trkpt lat="43.95492" lon="6.49868">
        <ele>1078</ele>
        <time>2022-06-09T18:39:04Z</time>
      </trkpt>
      <trkpt lat="43.95508" lon="6.49847">
        <ele>1081</ele>
        <time>2022-06-09T18:39:09Z</time>
      </trkpt>
      <trkpt lat="43.95511" lon="6.49846">
        <ele>1081</ele>
        <time>2022-06-09T18:39:10Z</time>
      </trkpt>
      <trkpt lat="43.95525" lon="6.49853">
        <ele>1072</ele>
        <time>2022-06-09T18:39:14Z</time>
      </trkpt>
      <trkpt lat="43.95529" lon="6.49852">
        <ele>1071</ele>
        <time>2022-06-09T18:39:15Z</time>
      </trkpt>
      <trkpt lat="43.95548" lon="6.49842">
        <ele>1068</ele>
        <time>2022-06-09T18:39:19Z</time>
      </trkpt>
      <trkpt lat="43.95567" lon="6.49828">
        <ele>1066</ele>
        <time>2022-06-09T18:39:24Z</time>
      </trkpt>
      <trkpt lat="43.95584" lon="6.49823">
        <ele>1062</ele>
        <time>2022-06-09T18:39:28Z</time>
      </trkpt>
      <trkpt lat="43.95672" lon="6.49815">
        <ele>1045</ele>
        <time>2022-06-09T18:39:49Z</time>
      </trkpt>
      <trkpt lat="43.95698" lon="6.49817">
        <ele>1037</ele>
        <time>2022-06-09T18:39:55Z</time>
      </trkpt>
      <trkpt lat="43.95729" lon="6.49796">
        <ele>1040</ele>
        <time>2022-06-09T18:40:03Z</time>
      </trkpt>
      <trkpt lat="43.95763" lon="6.49782">
        <ele>1036</ele>
        <time>2022-06-09T18:40:11Z</time>
      </trkpt>
      <trkpt lat="43.95806" lon="6.49775">
        <ele>1023</ele>
        <time>2022-06-09T18:40:22Z</time>
      </trkpt>
      <trkpt lat="43.9583" lon="6.49751">
        <ele>1023</ele>
        <time>2022-06-09T18:40:28Z</time>
      </trkpt>
      <trkpt lat="43.95852" lon="6.49738">
        <ele>1019</ele>
        <time>2022-06-09T18:40:34Z</time>
      </trkpt>
      <trkpt lat="43.95879" lon="6.49704">
        <ele>1021</ele>
        <time>2022-06-09T18:40:43Z</time>
      </trkpt>
      <trkpt lat="43.95894" lon="6.49693">
        <ele>1019</ele>
        <time>2022-06-09T18:40:47Z</time>
      </trkpt>
      <trkpt lat="43.95902" lon="6.49693">
        <ele>1016</ele>
        <time>2022-06-09T18:40:48Z</time>
      </trkpt>
      <trkpt lat="43.95895" lon="6.49699">
        <ele>1017</ele>
        <time>2022-06-09T18:40:50Z</time>
      </trkpt>
      <trkpt lat="43.9588" lon="6.49734">
        <ele>1010</ele>
        <time>2022-06-09T18:40:57Z</time>
      </trkpt>
      <trkpt lat="43.95868" lon="6.49747">
        <ele>1011</ele>
        <time>2022-06-09T18:41:01Z</time>
      </trkpt>
      <trkpt lat="43.95869" lon="6.49757">
        <ele>1007</ele>
        <time>2022-06-09T18:41:02Z</time>
      </trkpt>
      <trkpt lat="43.95877" lon="6.49757">
        <ele>1004</ele>
        <time>2022-06-09T18:41:04Z</time>
      </trkpt>
      <trkpt lat="43.9589" lon="6.49747">
        <ele>1003</ele>
        <time>2022-06-09T18:41:08Z</time>
      </trkpt>
      <trkpt lat="43.95933" lon="6.49726">
        <ele>994</ele>
        <time>2022-06-09T18:41:18Z</time>
      </trkpt>
      <trkpt lat="43.95938" lon="6.49728">
        <ele>992</ele>
        <time>2022-06-09T18:41:20Z</time>
      </trkpt>
      <trkpt lat="43.95925" lon="6.49751">
        <ele>989</ele>
        <time>2022-06-09T18:41:25Z</time>
      </trkpt>
      <trkpt lat="43.95928" lon="6.49784">
        <ele>980</ele>
        <time>2022-06-09T18:41:30Z</time>
      </trkpt>
      <trkpt lat="43.95919" lon="6.49806">
        <ele>977</ele>
        <time>2022-06-09T18:41:34Z</time>
      </trkpt>
      <trkpt lat="43.95892" lon="6.49837">
        <ele>975</ele>
        <time>2022-06-09T18:41:43Z</time>
      </trkpt>
      <trkpt lat="43.9588" lon="6.49858">
        <ele>972</ele>
        <time>2022-06-09T18:41:47Z</time>
      </trkpt>
      <trkpt lat="43.95866" lon="6.49895">
        <ele>966</ele>
        <time>2022-06-09T18:41:54Z</time>
      </trkpt>
      <trkpt lat="43.95867" lon="6.49919">
        <ele>960</ele>
        <time>2022-06-09T18:41:58Z</time>
      </trkpt>
      <trkpt lat="43.95872" lon="6.49939">
        <ele>957</ele>
        <time>2022-06-09T18:42:02Z</time>
      </trkpt>
      <trkpt lat="43.95869" lon="6.49949">
        <ele>956</ele>
        <time>2022-06-09T18:42:03Z</time>
      </trkpt>
      <trkpt lat="43.95848" lon="6.49975">
        <ele>958</ele>
        <time>2022-06-09T18:42:10Z</time>
      </trkpt>
      <trkpt lat="43.95829" lon="6.49989">
        <ele>961</ele>
        <time>2022-06-09T18:42:15Z</time>
      </trkpt>
      <trkpt lat="43.958" lon="6.5002">
        <ele>961</ele>
        <time>2022-06-09T18:42:24Z</time>
      </trkpt>
      <trkpt lat="43.95793" lon="6.50033">
        <ele>959</ele>
        <time>2022-06-09T18:42:26Z</time>
      </trkpt>
      <trkpt lat="43.95789" lon="6.50074">
        <ele>952</ele>
        <time>2022-06-09T18:42:33Z</time>
      </trkpt>
      <trkpt lat="43.95777" lon="6.50123">
        <ele>947</ele>
        <time>2022-06-09T18:42:42Z</time>
      </trkpt>
      <trkpt lat="43.95784" lon="6.50141">
        <ele>943</ele>
        <time>2022-06-09T18:42:45Z</time>
      </trkpt>
      <trkpt lat="43.95815" lon="6.50181">
        <ele>935</ele>
        <time>2022-06-09T18:42:55Z</time>
      </trkpt>
      <trkpt lat="43.95836" lon="6.50204">
        <ele>931</ele>
        <time>2022-06-09T18:43:02Z</time>
      </trkpt>
      <trkpt lat="43.95845" lon="6.50207">
        <ele>930</ele>
        <time>2022-06-09T18:43:04Z</time>
      </trkpt>
      <trkpt lat="43.95865" lon="6.50186">
        <ele>928</ele>
        <time>2022-06-09T18:43:10Z</time>
      </trkpt>
      <trkpt lat="43.95873" lon="6.50171">
        <ele>928</ele>
        <time>2022-06-09T18:43:13Z</time>
      </trkpt>
      <trkpt lat="43.9588" lon="6.50149">
        <ele>929</ele>
        <time>2022-06-09T18:43:17Z</time>
      </trkpt>
      <trkpt lat="43.9589" lon="6.50131">
        <ele>929</ele>
        <time>2022-06-09T18:43:21Z</time>
      </trkpt>
      <trkpt lat="43.95969" lon="6.50144">
        <ele>918</ele>
        <time>2022-06-09T18:43:39Z</time>
      </trkpt>
      <trkpt lat="43.95977" lon="6.50142">
        <ele>917</ele>
        <time>2022-06-09T18:43:41Z</time>
      </trkpt>
      <trkpt lat="43.95983" lon="6.50135">
        <ele>917</ele>
        <time>2022-06-09T18:43:43Z</time>
      </trkpt>
      <trkpt lat="43.95989" lon="6.50118">
        <ele>917</ele>
        <time>2022-06-09T18:43:46Z</time>
      </trkpt>
      <trkpt lat="43.95992" lon="6.50122">
        <ele>917</ele>
        <time>2022-06-09T18:43:47Z</time>
      </trkpt>
      <trkpt lat="43.9599" lon="6.50129">
        <ele>916</ele>
        <time>2022-06-09T18:43:48Z</time>
      </trkpt>
      <trkpt lat="43.95991" lon="6.50144">
        <ele>915</ele>
        <time>2022-06-09T18:43:51Z</time>
      </trkpt>
      <trkpt lat="43.96003" lon="6.50163">
        <ele>913</ele>
        <time>2022-06-09T18:43:55Z</time>
      </trkpt>
      <trkpt lat="43.96015" lon="6.50174">
        <ele>912</ele>
        <time>2022-06-09T18:43:58Z</time>
      </trkpt>
      <trkpt lat="43.96033" lon="6.50182">
        <ele>910</ele>
        <time>2022-06-09T18:44:03Z</time>
      </trkpt>
      <trkpt lat="43.96071" lon="6.50185">
        <ele>909</ele>
        <time>2022-06-09T18:44:12Z</time>
      </trkpt>
      <trkpt lat="43.96091" lon="6.50185">
        <ele>908</ele>
        <time>2022-06-09T18:44:16Z</time>
      </trkpt>
      <trkpt lat="43.96114" lon="6.50178">
        <ele>909</ele>
        <time>2022-06-09T18:44:22Z</time>
      </trkpt>
      <trkpt lat="43.96147" lon="6.5019">
        <ele>909</ele>
        <time>2022-06-09T18:44:30Z</time>
      </trkpt>
      <trkpt lat="43.96152" lon="6.50194">
        <ele>909</ele>
        <time>2022-06-09T18:44:31Z</time>
      </trkpt>
      <trkpt lat="43.96146" lon="6.50217">
        <ele>907</ele>
        <time>2022-06-09T18:44:35Z</time>
      </trkpt>
      <trkpt lat="43.96087" lon="6.5036">
        <ele>898</ele>
        <time>2022-06-09T18:45:03Z</time>
      </trkpt>
      <trkpt lat="43.96081" lon="6.50353">
        <ele>899</ele>
        <time>2022-06-09T18:45:05Z</time>
      </trkpt>
      <trkpt lat="43.96031" lon="6.50322">
        <ele>901</ele>
        <time>2022-06-09T18:45:18Z</time>
      </trkpt>
      <trkpt lat="43.96016" lon="6.5032">
        <ele>901</ele>
        <time>2022-06-09T18:45:21Z</time>
      </trkpt>
      <trkpt lat="43.95999" lon="6.50326">
        <ele>901</ele>
        <time>2022-06-09T18:45:25Z</time>
      </trkpt>
      <trkpt lat="43.95986" lon="6.50348">
        <ele>900</ele>
        <time>2022-06-09T18:45:30Z</time>
      </trkpt>
      <trkpt lat="43.95976" lon="6.5039">
        <ele>898</ele>
        <time>2022-06-09T18:45:38Z</time>
      </trkpt>
      <trkpt lat="43.95974" lon="6.50415">
        <ele>896</ele>
        <time>2022-06-09T18:45:42Z</time>
      </trkpt>
      <trkpt lat="43.95989" lon="6.50452">
        <ele>895</ele>
        <time>2022-06-09T18:45:49Z</time>
      </trkpt>
      <trkpt lat="43.95981" lon="6.5054">
        <ele>890</ele>
        <time>2022-06-09T18:46:04Z</time>
      </trkpt>
      <trkpt lat="43.95975" lon="6.50548">
        <ele>889</ele>
        <time>2022-06-09T18:46:06Z</time>
      </trkpt>
      <trkpt lat="43.95963" lon="6.50548">
        <ele>889</ele>
        <time>2022-06-09T18:46:09Z</time>
      </trkpt>
      <trkpt lat="43.9594" lon="6.50534">
        <ele>889</ele>
        <time>2022-06-09T18:46:14Z</time>
      </trkpt>
      <trkpt lat="43.9594" lon="6.50527">
        <ele>890</ele>
        <time>2022-06-09T18:46:16Z</time>
      </trkpt>
      <trkpt lat="43.95938" lon="6.50525">
        <ele>890</ele>
        <time>2022-06-09T18:46:16Z</time>
      </trkpt>
      <trkpt lat="43.95931" lon="6.50524">
        <ele>890</ele>
        <time>2022-06-09T18:46:18Z</time>
      </trkpt>
      <trkpt lat="43.95908" lon="6.50502">
        <ele>892</ele>
        <time>2022-06-09T18:46:24Z</time>
      </trkpt>
      <trkpt lat="43.95896" lon="6.50504">
        <ele>893</ele>
        <time>2022-06-09T18:46:27Z</time>
      </trkpt>
      <trkpt lat="43.959" lon="6.5058">
        <ele>886</ele>
        <time>2022-06-09T18:46:40Z</time>
      </trkpt>
      <trkpt lat="43.95899" lon="6.50611">
        <ele>883</ele>
        <time>2022-06-09T18:46:45Z</time>
      </trkpt>
      <trkpt lat="43.95894" lon="6.50621">
        <ele>883</ele>
        <time>2022-06-09T18:46:47Z</time>
      </trkpt>
      <trkpt lat="43.95899" lon="6.50621">
        <ele>883</ele>
        <time>2022-06-09T18:46:48Z</time>
      </trkpt>
      <trkpt lat="43.95904" lon="6.50627">
        <ele>882</ele>
        <time>2022-06-09T18:46:50Z</time>
      </trkpt>
      <trkpt lat="43.9591" lon="6.50629">
        <ele>882</ele>
        <time>2022-06-09T18:46:51Z</time>
      </trkpt>
      <trkpt lat="43.9601" lon="6.50635">
        <ele>885</ele>
        <time>2022-06-09T18:47:15Z</time>
      </trkpt>
      <trkpt lat="43.96042" lon="6.50642">
        <ele>885</ele>
        <time>2022-06-09T18:47:22Z</time>
      </trkpt>
      <trkpt lat="43.96165" lon="6.50651">
        <ele>888</ele>
        <time>2022-06-09T18:47:51Z</time>
      </trkpt>
      <trkpt lat="43.96233" lon="6.50662">
        <ele>888</ele>
        <time>2022-06-09T18:48:07Z</time>
      </trkpt>
      <trkpt lat="43.96252" lon="6.50662">
        <ele>888</ele>
        <time>2022-06-09T18:48:12Z</time>
      </trkpt>
      <trkpt lat="43.96398" lon="6.50683">
        <ele>891</ele>
        <time>2022-06-09T18:48:46Z</time>
      </trkpt>
      <trkpt lat="43.96429" lon="6.50689">
        <ele>891</ele>
        <time>2022-06-09T18:48:53Z</time>
      </trkpt>
      <trkpt lat="43.96449" lon="6.50699">
        <ele>891</ele>
        <time>2022-06-09T18:48:58Z</time>
      </trkpt>
      <trkpt lat="43.96463" lon="6.50698">
        <ele>891</ele>
        <time>2022-06-09T18:49:01Z</time>
      </trkpt>
      <trkpt lat="43.96467" lon="6.50704">
        <ele>891</ele>
        <time>2022-06-09T18:49:03Z</time>
      </trkpt>
      <trkpt lat="43.96474" lon="6.50706">
        <ele>891</ele>
        <time>2022-06-09T18:49:04Z</time>
      </trkpt>
      <trkpt lat="43.96509" lon="6.50731">
        <ele>892</ele>
        <time>2022-06-09T18:49:14Z</time>
      </trkpt>
      <trkpt lat="43.96621" lon="6.50821">
        <ele>893</ele>
        <time>2022-06-09T18:49:44Z</time>
      </trkpt>
      <trkpt lat="43.96693" lon="6.50866">
        <ele>895</ele>
        <time>2022-06-09T18:50:02Z</time>
      </trkpt>
      <trkpt lat="43.96701" lon="6.50876">
        <ele>895</ele>
        <time>2022-06-09T18:50:05Z</time>
      </trkpt>
      <trkpt lat="43.96721" lon="6.50891">
        <ele>896</ele>
        <time>2022-06-09T18:50:10Z</time>
      </trkpt>
      <trkpt lat="43.9673" lon="6.50894">
        <ele>897</ele>
        <time>2022-06-09T18:50:12Z</time>
      </trkpt>
      <trkpt lat="43.96738" lon="6.50885">
        <ele>897</ele>
        <time>2022-06-09T18:50:15Z</time>
      </trkpt>
      <trkpt lat="43.96741" lon="6.50888">
        <ele>897</ele>
        <time>2022-06-09T18:50:15Z</time>
      </trkpt>
      <trkpt lat="43.96741" lon="6.50885">
        <ele>897</ele>
        <time>2022-06-09T18:50:16Z</time>
      </trkpt>
      <trkpt lat="43.96744" lon="6.50885">
        <ele>898</ele>
        <time>2022-06-09T18:50:17Z</time>
      </trkpt>
      <trkpt lat="43.9674" lon="6.50884">
        <ele>897</ele>
        <time>2022-06-09T18:50:18Z</time>
      </trkpt>
      <trkpt lat="43.96741" lon="6.50887">
        <ele>897</ele>
        <time>2022-06-09T18:50:18Z</time>
      </trkpt>
    </trkseg>
  </trk>
</gpx>